PWSweather.com
Personal Weather Stations
Station Observations
DL5ARK
SonnebergDE

SonnebergDE

Lat: 50.34904861, Lon: 11.18112087

Elevation: 1214

Station Type: Selfmade

http://www.sumbarg.de

High Low Average
Temperature 30.2°F-1.0°C 11.5°F-11.4°C 19.8°F-6.8°C
Dew Point 16.4°F-8.7°C 9.0°F-12.8°C 13.1°F-10.5°C
Winds 17.8 mph 28.6 kmh Calm Calm 5.0 mph SE8.0 kmh SE
Wind Gusts 18.6 mph29.9 kmh -- 5.0 mph8.0 kmh
Humidity 71% 43% 58%
Pressure 30.01 in1016.3 mb 29.61 in1002.7 mb -
Precipitation 0.00 in0.0 mm - -
Hour Temp Dew Point Humidity Winds Wind Gusts Pressure Precip Precip Rate Daily Precip Total
12:02 AM 14.0°F-10.0°C 11.6°F-11.3°C 68% 9.8 mph SE15.8 kmh SE 9.8 mph15.8 kmh 30.02 in1016.6 mb 0.00 in0.0 mm 0.00 in0.0 mm 0.00 in0.0 mm
12:05 AM 13.9°F-10.1°C 11.1°F-11.6°C 68% 4.7 mph SE7.6 kmh SE 4.7 mph7.6 kmh 30.02 in1016.6 mb 0.00 in0.0 mm 0.00 in0.0 mm 0.00 in0.0 mm
12:08 AM 13.8°F-10.1°C 11.3°F-11.5°C 68% 4.0 mph SE6.4 kmh SE 4.0 mph6.4 kmh 30.02 in1016.6 mb 0.00 in0.0 mm 0.00 in0.0 mm 0.00 in0.0 mm
12:11 AM 13.8°F-10.1°C 11.7°F-11.3°C 68% 1.6 mph SE2.6 kmh SE 1.6 mph2.6 kmh 30.02 in1016.6 mb 0.00 in0.0 mm 0.00 in0.0 mm 0.00 in0.0 mm
12:14 AM 13.9°F-10.1°C 11.1°F-11.6°C 68% 6.9 mph ESE11.1 kmh ESE 6.9 mph11.1 kmh 30.02 in1016.6 mb 0.00 in0.0 mm 0.00 in0.0 mm 0.00 in0.0 mm
12:17 AM 13.8°F-10.1°C 11.3°F-11.5°C 69% 4.4 mph SE7.1 kmh SE 4.5 mph7.2 kmh 30.02 in1016.6 mb 0.00 in0.0 mm 0.00 in0.0 mm 0.00 in0.0 mm
12:20 AM 13.7°F-10.2°C 11.4°F-11.4°C 68% 5.1 mph SE8.2 kmh SE 5.1 mph8.2 kmh 30.02 in1016.6 mb 0.00 in0.0 mm 0.00 in0.0 mm 0.00 in0.0 mm
12:23 AM 13.6°F-10.2°C 11.2°F-11.6°C 68% 4.8 mph SSW7.7 kmh SSW 4.9 mph7.9 kmh 30.02 in1016.6 mb 0.00 in0.0 mm 0.00 in0.0 mm 0.00 in0.0 mm
12:26 AM 13.7°F-10.2°C 11.4°F-11.4°C 69% 0.4 mph SE0.6 kmh SE 0.4 mph0.6 kmh 30.02 in1016.6 mb 0.00 in0.0 mm 0.00 in0.0 mm 0.00 in0.0 mm
12:29 AM 13.9°F-10.1°C 11.1°F-11.6°C 69% 3.9 mph ESE6.3 kmh ESE 4.0 mph6.4 kmh 30.01 in1016.3 mb 0.00 in0.0 mm 0.00 in0.0 mm 0.00 in0.0 mm
12:32 AM 13.9°F-10.1°C 10.8°F-11.8°C 68% 12.8 mph ESE20.6 kmh ESE 12.9 mph20.8 kmh 30.01 in1016.3 mb 0.00 in0.0 mm 0.00 in0.0 mm 0.00 in0.0 mm
12:35 AM 13.6°F-10.2°C 11.4°F-11.4°C 69% 10.9 mph ESE17.5 kmh ESE 11.0 mph17.7 kmh 30.01 in1016.3 mb 0.00 in0.0 mm 0.00 in0.0 mm 0.00 in0.0 mm
12:38 AM 13.8°F-10.1°C 11.2°F-11.6°C 68% 6.8 mph SE10.9 kmh SE 6.8 mph10.9 kmh 30.01 in1016.3 mb 0.00 in0.0 mm 0.00 in0.0 mm 0.00 in0.0 mm
12:41 AM 13.8°F-10.1°C 11.2°F-11.6°C 69% 7.7 mph ESE12.4 kmh ESE 7.7 mph12.4 kmh 30.02 in1016.6 mb 0.00 in0.0 mm 0.00 in0.0 mm 0.00 in0.0 mm
12:44 AM 13.7°F-10.2°C 11.4°F-11.4°C 69% 0.8 mph ESE1.3 kmh ESE 0.8 mph1.3 kmh 30.01 in1016.3 mb 0.00 in0.0 mm 0.00 in0.0 mm 0.00 in0.0 mm
12:47 AM 13.8°F-10.1°C 11.0°F-11.7°C 68% 9.4 mph SE15.1 kmh SE 9.5 mph15.3 kmh 30.01 in1016.3 mb 0.00 in0.0 mm 0.00 in0.0 mm 0.00 in0.0 mm
12:50 AM 13.8°F-10.1°C 11.0°F-11.7°C 69% 4.8 mph ESE7.7 kmh ESE 4.9 mph7.9 kmh 30.01 in1016.3 mb 0.00 in0.0 mm 0.00 in0.0 mm 0.00 in0.0 mm
12:53 AM 13.8°F-10.1°C 11.1°F-11.6°C 69% 8.9 mph SE14.3 kmh SE 9.0 mph14.5 kmh 30.02 in1016.6 mb 0.00 in0.0 mm 0.00 in0.0 mm 0.00 in0.0 mm
12:56 AM 13.9°F-10.1°C 11.2°F-11.6°C 69% 5.5 mph SE8.9 kmh SE 5.5 mph8.9 kmh 30.01 in1016.3 mb 0.00 in0.0 mm 0.00 in0.0 mm 0.00 in0.0 mm
12:59 AM 13.9°F-10.1°C 10.7°F-11.8°C 69% 4.8 mph SE7.7 kmh SE 4.8 mph7.7 kmh 30.01 in1016.3 mb 0.00 in0.0 mm 0.00 in0.0 mm 0.00 in0.0 mm
01:02 AM 13.7°F-10.2°C 11.5°F-11.4°C 69% 8.3 mph ESE13.4 kmh ESE 8.4 mph13.5 kmh 30.01 in1016.3 mb 0.00 in0.0 mm 0.00 in0.0 mm 0.00 in0.0 mm
01:05 AM 13.7°F-10.2°C 10.8°F-11.8°C 69% 3.5 mph SE5.6 kmh SE 3.6 mph5.8 kmh 30.01 in1016.3 mb 0.00 in0.0 mm 0.00 in0.0 mm 0.00 in0.0 mm
01:08 AM 13.6°F-10.2°C 11.3°F-11.5°C 69% 6.5 mph E10.5 kmh E 6.5 mph10.5 kmh 30.01 in1016.3 mb 0.00 in0.0 mm 0.00 in0.0 mm 0.00 in0.0 mm
01:11 AM 13.7°F-10.2°C 11.1°F-11.6°C 69% 3.6 mph SSE5.8 kmh SSE 3.7 mph6.0 kmh 30.00 in1015.9 mb 0.00 in0.0 mm 0.00 in0.0 mm 0.00 in0.0 mm
01:14 AM 13.6°F-10.2°C 11.1°F-11.6°C 69% 2.8 mph SE4.5 kmh SE 2.9 mph4.7 kmh 30.01 in1016.3 mb 0.00 in0.0 mm 0.00 in0.0 mm 0.00 in0.0 mm
01:17 AM 13.7°F-10.2°C 10.9°F-11.7°C 69% 6.9 mph SE11.1 kmh SE 7.0 mph11.3 kmh 30.01 in1016.3 mb 0.00 in0.0 mm 0.00 in0.0 mm 0.00 in0.0 mm
01:20 AM 13.4°F-10.3°C 11.3°F-11.5°C 69% 7.3 mph ESE11.7 kmh ESE 7.3 mph11.7 kmh 30.01 in1016.3 mb 0.00 in0.0 mm 0.00 in0.0 mm 0.00 in0.0 mm
01:23 AM 13.4°F-10.3°C 11.2°F-11.6°C 69% 5.9 mph SSE9.5 kmh SSE 5.9 mph9.5 kmh 30.01 in1016.3 mb 0.00 in0.0 mm 0.00 in0.0 mm 0.00 in0.0 mm
01:26 AM 13.2°F-10.4°C 11.2°F-11.6°C 69% 4.0 mph SE6.4 kmh SE 4.1 mph6.6 kmh 30.01 in1016.3 mb 0.00 in0.0 mm 0.00 in0.0 mm 0.00 in0.0 mm
01:29 AM 13.1°F-10.5°C 11.7°F-11.3°C 69% 3.6 mph E5.8 kmh E 3.6 mph5.8 kmh 30.01 in1016.3 mb 0.00 in0.0 mm 0.00 in0.0 mm 0.00 in0.0 mm
01:32 AM 13.2°F-10.4°C 11.6°F-11.3°C 69% 2.4 mph E3.9 kmh E 2.4 mph3.9 kmh 30.00 in1015.9 mb 0.00 in0.0 mm 0.00 in0.0 mm 0.00 in0.0 mm
01:35 AM 13.3°F-10.4°C 11.4°F-11.4°C 70% 6.4 mph ESE10.3 kmh ESE 6.4 mph10.3 kmh 30.00 in1015.9 mb 0.00 in0.0 mm 0.00 in0.0 mm 0.00 in0.0 mm
01:38 AM 13.0°F-10.6°C 11.4°F-11.4°C 69% 0.8 mph E1.3 kmh E 0.8 mph1.3 kmh 30.00 in1015.9 mb 0.00 in0.0 mm 0.00 in0.0 mm 0.00 in0.0 mm
01:41 AM 13.0°F-10.6°C 11.3°F-11.5°C 69% 4.8 mph ESE7.7 kmh ESE 4.9 mph7.9 kmh 30.00 in1015.9 mb 0.00 in0.0 mm 0.00 in0.0 mm 0.00 in0.0 mm
01:44 AM 13.1°F-10.5°C 11.2°F-11.6°C 69% 0.8 mph SSE1.3 kmh SSE 0.8 mph1.3 kmh 30.00 in1015.9 mb 0.00 in0.0 mm 0.00 in0.0 mm 0.00 in0.0 mm
01:47 AM 13.0°F-10.6°C 11.2°F-11.6°C 69% 3.6 mph SSE5.8 kmh SSE 3.6 mph5.8 kmh 30.00 in1015.9 mb 0.00 in0.0 mm 0.00 in0.0 mm 0.00 in0.0 mm
01:50 AM 13.0°F-10.6°C 10.9°F-11.7°C 69% 4.9 mph E7.9 kmh E 4.9 mph7.9 kmh 30.00 in1015.9 mb 0.00 in0.0 mm 0.00 in0.0 mm 0.00 in0.0 mm
01:53 AM 13.2°F-10.4°C 10.8°F-11.8°C 69% 5.9 mph SE9.5 kmh SE 6.0 mph9.7 kmh 30.00 in1015.9 mb 0.00 in0.0 mm 0.00 in0.0 mm 0.00 in0.0 mm
01:56 AM 13.0°F-10.6°C 11.1°F-11.6°C 69% 2.0 mph ESE3.2 kmh ESE 2.0 mph3.2 kmh 30.00 in1015.9 mb 0.00 in0.0 mm 0.00 in0.0 mm 0.00 in0.0 mm
01:59 AM 13.0°F-10.6°C 11.1°F-11.6°C 69% 1.6 mph E2.6 kmh E 1.6 mph2.6 kmh 30.00 in1015.9 mb 0.00 in0.0 mm 0.00 in0.0 mm 0.00 in0.0 mm
02:02 AM 13.1°F-10.5°C 11.1°F-11.6°C 69% 4.0 mph E6.4 kmh E 4.0 mph6.4 kmh 29.99 in1015.6 mb 0.00 in0.0 mm 0.00 in0.0 mm 0.00 in0.0 mm
02:05 AM 12.8°F-10.7°C 11.2°F-11.6°C 70% 1.2 mph SE1.9 kmh SE 1.2 mph1.9 kmh 29.99 in1015.6 mb 0.00 in0.0 mm 0.00 in0.0 mm 0.00 in0.0 mm
02:08 AM 13.0°F-10.6°C 11.0°F-11.7°C 70% 5.2 mph SE8.4 kmh SE 5.2 mph8.4 kmh 30.00 in1015.9 mb 0.00 in0.0 mm 0.00 in0.0 mm 0.00 in0.0 mm
02:11 AM 12.7°F-10.7°C 10.6°F-11.9°C 70% 4.7 mph SE7.6 kmh SE 4.7 mph7.6 kmh 30.00 in1015.9 mb 0.00 in0.0 mm 0.00 in0.0 mm 0.00 in0.0 mm
02:14 AM 12.8°F-10.7°C 11.3°F-11.5°C 70% 3.6 mph ESE5.8 kmh ESE 3.6 mph5.8 kmh 29.99 in1015.6 mb 0.00 in0.0 mm 0.00 in0.0 mm 0.00 in0.0 mm
02:20 AM 13.0°F-10.6°C 10.8°F-11.8°C 69% 7.7 mph SE12.4 kmh SE 7.7 mph12.4 kmh 29.99 in1015.6 mb 0.00 in0.0 mm 0.00 in0.0 mm 0.00 in0.0 mm
02:23 AM 13.0°F-10.6°C 11.3°F-11.5°C 70% 4.7 mph ESE7.6 kmh ESE 4.7 mph7.6 kmh 29.99 in1015.6 mb 0.00 in0.0 mm 0.00 in0.0 mm 0.00 in0.0 mm
02:26 AM 12.8°F-10.7°C 10.8°F-11.8°C 70% 2.8 mph SE4.5 kmh SE 2.9 mph4.7 kmh 29.98 in1015.2 mb 0.00 in0.0 mm 0.00 in0.0 mm 0.00 in0.0 mm
02:29 AM 12.9°F-10.6°C 11.2°F-11.6°C 70% Calm Calm -- 29.98 in1015.2 mb 0.00 in0.0 mm 0.00 in0.0 mm 0.00 in0.0 mm
02:32 AM 13.0°F-10.6°C 10.7°F-11.8°C 70% 2.4 mph ESE3.9 kmh ESE 2.4 mph3.9 kmh 29.98 in1015.2 mb 0.00 in0.0 mm 0.00 in0.0 mm 0.00 in0.0 mm
02:35 AM 12.7°F-10.7°C 11.4°F-11.4°C 69% 2.8 mph ESE4.5 kmh ESE 2.9 mph4.7 kmh 29.97 in1014.9 mb 0.00 in0.0 mm 0.00 in0.0 mm 0.00 in0.0 mm
02:38 AM 12.8°F-10.7°C 11.2°F-11.6°C 70% 2.0 mph ESE3.2 kmh ESE 2.0 mph3.2 kmh 29.97 in1014.9 mb 0.00 in0.0 mm 0.00 in0.0 mm 0.00 in0.0 mm
02:41 AM 12.8°F-10.7°C 10.9°F-11.7°C 69% 0.8 mph NNW1.3 kmh NNW 0.8 mph1.3 kmh 29.97 in1014.9 mb 0.00 in0.0 mm 0.00 in0.0 mm 0.00 in0.0 mm
02:44 AM 12.8°F-10.7°C 11.2°F-11.6°C 69% 4.0 mph SE6.4 kmh SE 4.1 mph6.6 kmh 29.97 in1014.9 mb 0.00 in0.0 mm 0.00 in0.0 mm 0.00 in0.0 mm
02:47 AM 12.5°F-10.8°C 11.4°F-11.4°C 70% 5.2 mph SE8.4 kmh SE 5.2 mph8.4 kmh 29.97 in1014.9 mb 0.00 in0.0 mm 0.00 in0.0 mm 0.00 in0.0 mm
02:50 AM 12.4°F-10.9°C 11.2°F-11.6°C 69% 7.0 mph SE11.3 kmh SE 7.1 mph11.4 kmh 29.97 in1014.9 mb 0.00 in0.0 mm 0.00 in0.0 mm 0.00 in0.0 mm
02:53 AM 12.3°F-10.9°C 11.6°F-11.3°C 69% Calm Calm -- 29.97 in1014.9 mb 0.00 in0.0 mm 0.00 in0.0 mm 0.00 in0.0 mm
02:56 AM 12.4°F-10.9°C 10.6°F-11.9°C 69% 2.4 mph SSE3.9 kmh SSE 2.4 mph3.9 kmh 29.97 in1014.9 mb 0.00 in0.0 mm 0.00 in0.0 mm 0.00 in0.0 mm
02:59 AM 12.4°F-10.9°C 10.6°F-11.9°C 70% Calm Calm -- 29.97 in1014.9 mb 0.00 in0.0 mm 0.00 in0.0 mm 0.00 in0.0 mm
03:02 AM 12.5°F-10.8°C 11.0°F-11.7°C 70% 2.0 mph SE3.2 kmh SE 2.0 mph3.2 kmh 29.96 in1014.6 mb 0.00 in0.0 mm 0.00 in0.0 mm 0.00 in0.0 mm
03:05 AM 12.5°F-10.8°C 11.4°F-11.4°C 70% Calm Calm -- 29.96 in1014.6 mb 0.00 in0.0 mm 0.00 in0.0 mm 0.00 in0.0 mm
03:08 AM 12.4°F-10.9°C 11.1°F-11.6°C 69% 5.6 mph SE9.0 kmh SE 5.7 mph9.2 kmh 29.96 in1014.6 mb 0.00 in0.0 mm 0.00 in0.0 mm 0.00 in0.0 mm
03:11 AM 12.9°F-10.6°C 10.9°F-11.7°C 69% 3.2 mph SE5.1 kmh SE 3.3 mph5.3 kmh 29.95 in1014.2 mb 0.00 in0.0 mm 0.00 in0.0 mm 0.00 in0.0 mm
03:14 AM 12.5°F-10.8°C 11.2°F-11.6°C 70% 0.8 mph SE1.3 kmh SE 0.8 mph1.3 kmh 29.94 in1013.9 mb 0.00 in0.0 mm 0.00 in0.0 mm 0.00 in0.0 mm
03:17 AM 12.5°F-10.8°C 11.3°F-11.5°C 70% 8.2 mph SSE13.2 kmh SSE 8.3 mph13.4 kmh 29.94 in1013.9 mb 0.00 in0.0 mm 0.00 in0.0 mm 0.00 in0.0 mm
03:20 AM 12.9°F-10.6°C 10.8°F-11.8°C 69% 4.3 mph NE6.9 kmh NE 4.4 mph7.1 kmh 29.94 in1013.9 mb 0.00 in0.0 mm 0.00 in0.0 mm 0.00 in0.0 mm
03:23 AM 12.9°F-10.6°C 10.9°F-11.7°C 69% 2.0 mph ESE3.2 kmh ESE 2.0 mph3.2 kmh 29.94 in1013.9 mb 0.00 in0.0 mm 0.00 in0.0 mm 0.00 in0.0 mm
03:26 AM 13.0°F-10.6°C 10.9°F-11.7°C 68% 10.1 mph ESE16.3 kmh ESE 10.1 mph16.3 kmh 29.94 in1013.9 mb 0.00 in0.0 mm 0.00 in0.0 mm 0.00 in0.0 mm
03:29 AM 13.0°F-10.6°C 10.8°F-11.8°C 69% 7.2 mph ESE11.6 kmh ESE 7.3 mph11.7 kmh 29.93 in1013.5 mb 0.00 in0.0 mm 0.00 in0.0 mm 0.00 in0.0 mm
03:32 AM 13.0°F-10.6°C 11.1°F-11.6°C 68% 0.4 mph SE0.6 kmh SE 0.4 mph0.6 kmh 29.93 in1013.5 mb 0.00 in0.0 mm 0.00 in0.0 mm 0.00 in0.0 mm
03:35 AM 13.2°F-10.4°C 10.6°F-11.9°C 68% 10.8 mph NNW17.4 kmh NNW 10.9 mph17.5 kmh 29.93 in1013.5 mb 0.00 in0.0 mm 0.00 in0.0 mm 0.00 in0.0 mm
03:38 AM 13.1°F-10.5°C 10.9°F-11.7°C 68% 3.1 mph SE5.0 kmh SE 3.1 mph5.0 kmh 29.94 in1013.9 mb 0.00 in0.0 mm 0.00 in0.0 mm 0.00 in0.0 mm
03:41 AM 13.2°F-10.4°C 10.3°F-12.1°C 67% 4.4 mph ESE7.1 kmh ESE 4.5 mph7.2 kmh 29.94 in1013.9 mb 0.00 in0.0 mm 0.00 in0.0 mm 0.00 in0.0 mm
03:44 AM 12.9°F-10.6°C 10.9°F-11.7°C 68% Calm Calm -- 29.94 in1013.9 mb 0.00 in0.0 mm 0.00 in0.0 mm 0.00 in0.0 mm
03:47 AM 13.0°F-10.6°C 10.7°F-11.8°C 67% 7.2 mph ESE11.6 kmh ESE 7.2 mph11.6 kmh 29.94 in1013.9 mb 0.00 in0.0 mm 0.00 in0.0 mm 0.00 in0.0 mm
03:53 AM 12.9°F-10.6°C 10.9°F-11.7°C 67% 2.8 mph SE4.5 kmh SE 2.8 mph4.5 kmh 29.94 in1013.9 mb 0.00 in0.0 mm 0.00 in0.0 mm 0.00 in0.0 mm
03:56 AM 12.8°F-10.7°C 10.6°F-11.9°C 68% 2.8 mph SE4.5 kmh SE 2.9 mph4.7 kmh 29.94 in1013.9 mb 0.00 in0.0 mm 0.00 in0.0 mm 0.00 in0.0 mm
03:59 AM 12.8°F-10.7°C 10.9°F-11.7°C 68% 2.0 mph SSE3.2 kmh SSE 2.0 mph3.2 kmh 29.94 in1013.9 mb 0.00 in0.0 mm 0.00 in0.0 mm 0.00 in0.0 mm
04:02 AM 12.8°F-10.7°C 11.0°F-11.7°C 67% 1.2 mph ESE1.9 kmh ESE 1.2 mph1.9 kmh 29.94 in1013.9 mb 0.00 in0.0 mm 0.00 in0.0 mm 0.00 in0.0 mm
04:05 AM 12.9°F-10.6°C 10.8°F-11.8°C 67% 3.2 mph ESE5.1 kmh ESE 3.2 mph5.1 kmh 29.94 in1013.9 mb 0.00 in0.0 mm 0.00 in0.0 mm 0.00 in0.0 mm
04:08 AM 12.9°F-10.6°C 10.9°F-11.7°C 68% 6.1 mph SSE9.8 kmh SSE 6.1 mph9.8 kmh 29.94 in1013.9 mb 0.00 in0.0 mm 0.00 in0.0 mm 0.00 in0.0 mm
04:11 AM 13.1°F-10.5°C 10.7°F-11.8°C 67% 8.9 mph SE14.3 kmh SE 8.9 mph14.3 kmh 29.94 in1013.9 mb 0.00 in0.0 mm 0.00 in0.0 mm 0.00 in0.0 mm
04:14 AM 13.1°F-10.5°C 10.8°F-11.8°C 68% 3.2 mph ESE5.1 kmh ESE 3.2 mph5.1 kmh 29.94 in1013.9 mb 0.00 in0.0 mm 0.00 in0.0 mm 0.00 in0.0 mm
04:17 AM 13.2°F-10.4°C 10.5°F-11.9°C 67% 2.7 mph ESE4.3 kmh ESE 2.8 mph4.5 kmh 29.94 in1013.9 mb 0.00 in0.0 mm 0.00 in0.0 mm 0.00 in0.0 mm
04:20 AM 13.1°F-10.5°C 10.8°F-11.8°C 68% 6.3 mph ESE10.1 kmh ESE 6.3 mph10.1 kmh 29.94 in1013.9 mb 0.00 in0.0 mm 0.00 in0.0 mm 0.00 in0.0 mm
04:23 AM 12.8°F-10.7°C 11.0°F-11.7°C 67% 3.6 mph ESE5.8 kmh ESE 3.6 mph5.8 kmh 29.94 in1013.9 mb 0.00 in0.0 mm 0.00 in0.0 mm 0.00 in0.0 mm
04:26 AM 13.1°F-10.5°C 9.9°F-12.3°C 67% 8.8 mph E14.2 kmh E 8.8 mph14.2 kmh 29.94 in1013.9 mb 0.00 in0.0 mm 0.00 in0.0 mm 0.00 in0.0 mm
04:29 AM 12.9°F-10.6°C 9.9°F-12.3°C 68% 14.7 mph E23.7 kmh E 14.7 mph23.7 kmh 29.94 in1013.9 mb 0.00 in0.0 mm 0.00 in0.0 mm 0.00 in0.0 mm
04:32 AM 12.8°F-10.7°C 10.5°F-11.9°C 68% 3.5 mph S5.6 kmh S 3.6 mph5.8 kmh 29.94 in1013.9 mb 0.00 in0.0 mm 0.00 in0.0 mm 0.00 in0.0 mm
04:35 AM 12.8°F-10.7°C 10.4°F-12.0°C 68% 7.6 mph SSE12.2 kmh SSE 7.6 mph12.2 kmh 29.94 in1013.9 mb 0.00 in0.0 mm 0.00 in0.0 mm 0.00 in0.0 mm
04:38 AM 13.0°F-10.6°C 9.5°F-12.5°C 68% 4.8 mph SSE7.7 kmh SSE 4.8 mph7.7 kmh 29.94 in1013.9 mb 0.00 in0.0 mm 0.00 in0.0 mm 0.00 in0.0 mm
04:41 AM 12.8°F-10.7°C 10.1°F-12.2°C 68% 8.9 mph SE14.3 kmh SE 8.9 mph14.3 kmh 29.94 in1013.9 mb 0.00 in0.0 mm 0.00 in0.0 mm 0.00 in0.0 mm
04:44 AM 12.8°F-10.7°C 9.6°F-12.4°C 68% 5.2 mph SE8.4 kmh SE 5.2 mph8.4 kmh 29.94 in1013.9 mb 0.00 in0.0 mm 0.00 in0.0 mm 0.00 in0.0 mm
04:47 AM 12.8°F-10.7°C 9.8°F-12.3°C 68% 12.3 mph SE19.8 kmh SE 12.4 mph20.0 kmh 29.94 in1013.9 mb 0.00 in0.0 mm 0.00 in0.0 mm 0.00 in0.0 mm
04:50 AM 12.8°F-10.7°C 9.9°F-12.3°C 68% 8.3 mph SE13.4 kmh SE 8.4 mph13.5 kmh 29.94 in1013.9 mb 0.00 in0.0 mm 0.00 in0.0 mm 0.00 in0.0 mm
04:53 AM 12.5°F-10.8°C 10.6°F-11.9°C 69% 3.6 mph SE5.8 kmh SE 3.7 mph6.0 kmh 29.94 in1013.9 mb 0.00 in0.0 mm 0.00 in0.0 mm 0.00 in0.0 mm
04:56 AM 12.7°F-10.7°C 10.2°F-12.1°C 68% 9.8 mph SSE15.8 kmh SSE 9.8 mph15.8 kmh 29.94 in1013.9 mb 0.00 in0.0 mm 0.00 in0.0 mm 0.00 in0.0 mm
04:59 AM 12.4°F-10.9°C 10.4°F-12.0°C 68% 4.3 mph ESE6.9 kmh ESE 4.3 mph6.9 kmh 29.94 in1013.9 mb 0.00 in0.0 mm 0.00 in0.0 mm 0.00 in0.0 mm
05:02 AM 12.3°F-10.9°C 10.1°F-12.2°C 68% 3.6 mph E5.8 kmh E 3.6 mph5.8 kmh 29.94 in1013.9 mb 0.00 in0.0 mm 0.00 in0.0 mm 0.00 in0.0 mm
05:05 AM 12.4°F-10.9°C 10.1°F-12.2°C 69% Calm Calm -- 29.94 in1013.9 mb 0.00 in0.0 mm 0.00 in0.0 mm 0.00 in0.0 mm
05:08 AM 12.1°F-11.1°C 10.7°F-11.8°C 68% Calm Calm -- 29.94 in1013.9 mb 0.00 in0.0 mm 0.00 in0.0 mm 0.00 in0.0 mm
05:11 AM 12.5°F-10.8°C 10.0°F-12.2°C 69% 2.8 mph ESE4.5 kmh ESE 2.9 mph4.7 kmh 29.94 in1013.9 mb 0.00 in0.0 mm 0.00 in0.0 mm 0.00 in0.0 mm
05:14 AM 12.2°F-11.0°C 10.4°F-12.0°C 68% 5.2 mph E8.4 kmh E 5.2 mph8.4 kmh 29.94 in1013.9 mb 0.00 in0.0 mm 0.00 in0.0 mm 0.00 in0.0 mm
05:17 AM 12.2°F-11.0°C 10.5°F-11.9°C 68% 2.0 mph SE3.2 kmh SE 2.0 mph3.2 kmh 29.94 in1013.9 mb 0.00 in0.0 mm 0.00 in0.0 mm 0.00 in0.0 mm
05:20 AM 12.1°F-11.1°C 10.5°F-11.9°C 68% 5.4 mph E8.7 kmh E 5.5 mph8.9 kmh 29.93 in1013.5 mb 0.00 in0.0 mm 0.00 in0.0 mm 0.00 in0.0 mm
05:23 AM 12.2°F-11.0°C 10.0°F-12.2°C 68% 6.0 mph SE9.7 kmh SE 6.1 mph9.8 kmh 29.93 in1013.5 mb 0.00 in0.0 mm 0.00 in0.0 mm 0.00 in0.0 mm
05:26 AM 12.1°F-11.1°C 10.5°F-11.9°C 69% 5.2 mph E8.4 kmh E 5.2 mph8.4 kmh 29.93 in1013.5 mb 0.00 in0.0 mm 0.00 in0.0 mm 0.00 in0.0 mm
05:29 AM 12.1°F-11.1°C 9.9°F-12.3°C 69% 12.5 mph SSE20.1 kmh SSE 12.6 mph20.3 kmh 29.92 in1013.2 mb 0.00 in0.0 mm 0.00 in0.0 mm 0.00 in0.0 mm
05:32 AM 12.1°F-11.1°C 10.1°F-12.2°C 69% 6.5 mph E10.5 kmh E 6.5 mph10.5 kmh 29.92 in1013.2 mb 0.00 in0.0 mm 0.00 in0.0 mm 0.00 in0.0 mm
05:35 AM 12.1°F-11.1°C 10.4°F-12.0°C 69% 4.0 mph ESE6.4 kmh ESE 4.1 mph6.6 kmh 29.92 in1013.2 mb 0.00 in0.0 mm 0.00 in0.0 mm 0.00 in0.0 mm
05:38 AM 12.0°F-11.1°C 10.0°F-12.2°C 69% 1.6 mph E2.6 kmh E 1.6 mph2.6 kmh 29.91 in1012.9 mb 0.00 in0.0 mm 0.00 in0.0 mm 0.00 in0.0 mm
05:41 AM 11.9°F-11.2°C 9.9°F-12.3°C 69% 7.0 mph ESE11.3 kmh ESE 7.1 mph11.4 kmh 29.91 in1012.9 mb 0.00 in0.0 mm 0.00 in0.0 mm 0.00 in0.0 mm
05:44 AM 12.0°F-11.1°C 9.9°F-12.3°C 69% 2.4 mph SE3.9 kmh SE 2.4 mph3.9 kmh 29.91 in1012.9 mb 0.00 in0.0 mm 0.00 in0.0 mm 0.00 in0.0 mm
05:47 AM 11.9°F-11.2°C 9.9°F-12.3°C 70% 15.1 mph ESE24.3 kmh ESE 15.3 mph24.6 kmh 29.91 in1012.9 mb 0.00 in0.0 mm 0.00 in0.0 mm 0.00 in0.0 mm
05:50 AM 12.0°F-11.1°C 9.8°F-12.3°C 70% 7.6 mph ESE12.2 kmh ESE 7.7 mph12.4 kmh 29.91 in1012.9 mb 0.00 in0.0 mm 0.00 in0.0 mm 0.00 in0.0 mm
05:53 AM 11.9°F-11.2°C 10.1°F-12.2°C 70% 4.0 mph SE6.4 kmh SE 4.1 mph6.6 kmh 29.91 in1012.9 mb 0.00 in0.0 mm 0.00 in0.0 mm 0.00 in0.0 mm
05:56 AM 11.9°F-11.2°C 9.7°F-12.4°C 70% 2.0 mph ESE3.2 kmh ESE 2.0 mph3.2 kmh 29.91 in1012.9 mb 0.00 in0.0 mm 0.00 in0.0 mm 0.00 in0.0 mm
05:59 AM 11.8°F-11.2°C 10.1°F-12.2°C 70% 6.9 mph ESE11.1 kmh ESE 6.9 mph11.1 kmh 29.91 in1012.9 mb 0.00 in0.0 mm 0.00 in0.0 mm 0.00 in0.0 mm
06:02 AM 11.8°F-11.2°C 9.9°F-12.3°C 70% 2.8 mph SE4.5 kmh SE 2.8 mph4.5 kmh 29.90 in1012.5 mb 0.00 in0.0 mm 0.00 in0.0 mm 0.00 in0.0 mm
06:05 AM 11.8°F-11.2°C 9.9°F-12.3°C 70% 3.6 mph E5.8 kmh E 3.7 mph6.0 kmh 29.90 in1012.5 mb 0.00 in0.0 mm 0.00 in0.0 mm 0.00 in0.0 mm
06:08 AM 11.8°F-11.2°C 9.8°F-12.3°C 70% 9.3 mph E15.0 kmh E 9.4 mph15.1 kmh 29.90 in1012.5 mb 0.00 in0.0 mm 0.00 in0.0 mm 0.00 in0.0 mm
06:11 AM 11.5°F-11.4°C 10.3°F-12.1°C 70% 4.4 mph SE7.1 kmh SE 4.5 mph7.2 kmh 29.90 in1012.5 mb 0.00 in0.0 mm 0.00 in0.0 mm 0.00 in0.0 mm
06:14 AM 11.5°F-11.4°C 10.2°F-12.1°C 70% 5.6 mph E9.0 kmh E 5.7 mph9.2 kmh 29.90 in1012.5 mb 0.00 in0.0 mm 0.00 in0.0 mm 0.00 in0.0 mm
06:17 AM 11.6°F-11.3°C 9.9°F-12.3°C 70% 0.4 mph ESE0.6 kmh ESE 0.4 mph0.6 kmh 29.89 in1012.2 mb 0.00 in0.0 mm 0.00 in0.0 mm 0.00 in0.0 mm
06:20 AM 11.6°F-11.3°C 10.0°F-12.2°C 70% 7.7 mph SE12.4 kmh SE 7.7 mph12.4 kmh 29.89 in1012.2 mb 0.00 in0.0 mm 0.00 in0.0 mm 0.00 in0.0 mm
06:23 AM 11.6°F-11.3°C 9.9°F-12.3°C 70% 3.6 mph SSE5.8 kmh SSE 3.7 mph6.0 kmh 29.89 in1012.2 mb 0.00 in0.0 mm 0.00 in0.0 mm 0.00 in0.0 mm
06:26 AM 11.5°F-11.4°C 9.8°F-12.3°C 70% 13.3 mph E21.4 kmh E 13.3 mph21.4 kmh 29.90 in1012.5 mb 0.00 in0.0 mm 0.00 in0.0 mm 0.00 in0.0 mm
06:29 AM 11.6°F-11.3°C 9.7°F-12.4°C 70% 5.2 mph ESE8.4 kmh ESE 5.3 mph8.5 kmh 29.88 in1011.9 mb 0.00 in0.0 mm 0.00 in0.0 mm 0.00 in0.0 mm
06:32 AM 11.6°F-11.3°C 9.8°F-12.3°C 70% 2.0 mph SE3.2 kmh SE 2.0 mph3.2 kmh 29.88 in1011.9 mb 0.00 in0.0 mm 0.00 in0.0 mm 0.00 in0.0 mm
06:35 AM 11.6°F-11.3°C 9.6°F-12.4°C 70% 16.3 mph ESE26.2 kmh ESE 16.3 mph26.2 kmh 29.88 in1011.9 mb 0.00 in0.0 mm 0.00 in0.0 mm 0.00 in0.0 mm
06:38 AM 11.5°F-11.4°C 9.9°F-12.3°C 71% 7.6 mph E12.2 kmh E 7.7 mph12.4 kmh 29.88 in1011.9 mb 0.00 in0.0 mm 0.00 in0.0 mm 0.00 in0.0 mm
06:41 AM 11.5°F-11.4°C 9.2°F-12.7°C 70% 0.8 mph E1.3 kmh E 0.8 mph1.3 kmh 29.89 in1012.2 mb 0.00 in0.0 mm 0.00 in0.0 mm 0.00 in0.0 mm
06:44 AM 11.5°F-11.4°C 9.8°F-12.3°C 70% 6.3 mph E10.1 kmh E 6.3 mph10.1 kmh 29.88 in1011.9 mb 0.00 in0.0 mm 0.00 in0.0 mm 0.00 in0.0 mm
06:47 AM 11.5°F-11.4°C 9.0°F-12.8°C 70% 13.3 mph SE21.4 kmh SE 13.4 mph21.6 kmh 29.88 in1011.9 mb 0.00 in0.0 mm 0.00 in0.0 mm 0.00 in0.0 mm
06:50 AM 11.6°F-11.3°C 9.6°F-12.4°C 70% 4.0 mph ESE6.4 kmh ESE 4.1 mph6.6 kmh 29.88 in1011.9 mb 0.00 in0.0 mm 0.00 in0.0 mm 0.00 in0.0 mm
06:53 AM 11.6°F-11.3°C 9.1°F-12.7°C 70% 14.1 mph SE22.7 kmh SE 14.2 mph22.9 kmh 29.88 in1011.9 mb 0.00 in0.0 mm 0.00 in0.0 mm 0.00 in0.0 mm
06:56 AM 11.6°F-11.3°C 9.6°F-12.4°C 70% 15.8 mph NNW25.4 kmh NNW 15.8 mph25.4 kmh 29.88 in1011.9 mb 0.00 in0.0 mm 0.00 in0.0 mm 0.00 in0.0 mm
06:59 AM 11.6°F-11.3°C 9.7°F-12.4°C 70% 4.4 mph ESE7.1 kmh ESE 4.4 mph7.1 kmh 29.88 in1011.9 mb 0.00 in0.0 mm 0.00 in0.0 mm 0.00 in0.0 mm
07:02 AM 11.8°F-11.2°C 9.9°F-12.3°C 70% 4.0 mph S6.4 kmh S 4.0 mph6.4 kmh 29.87 in1011.5 mb 0.00 in0.0 mm 0.00 in0.0 mm 0.00 in0.0 mm
07:05 AM 11.6°F-11.3°C 9.8°F-12.3°C 70% 6.9 mph ESE11.1 kmh ESE 6.9 mph11.1 kmh 29.87 in1011.5 mb 0.00 in0.0 mm 0.00 in0.0 mm 0.00 in0.0 mm
07:08 AM 11.9°F-11.2°C 9.6°F-12.4°C 70% 14.6 mph SE23.5 kmh SE 14.7 mph23.7 kmh 29.86 in1011.2 mb 0.00 in0.0 mm 0.00 in0.0 mm 0.00 in0.0 mm
07:11 AM 12.0°F-11.1°C 9.2°F-12.7°C 69% 12.5 mph E20.1 kmh E 12.6 mph20.3 kmh 29.85 in1010.8 mb 0.00 in0.0 mm 0.00 in0.0 mm 0.00 in0.0 mm
07:14 AM 11.9°F-11.2°C 9.3°F-12.6°C 70% 7.1 mph NE11.4 kmh NE 7.2 mph11.6 kmh 29.85 in1010.8 mb 0.00 in0.0 mm 0.00 in0.0 mm 0.00 in0.0 mm
07:17 AM 11.9°F-11.2°C 10.0°F-12.2°C 69% 6.6 mph ENE10.6 kmh ENE 6.7 mph10.8 kmh 29.86 in1011.2 mb 0.00 in0.0 mm 0.00 in0.0 mm 0.00 in0.0 mm
07:20 AM 11.9°F-11.2°C 10.0°F-12.2°C 70% 15.7 mph E25.3 kmh E 15.7 mph25.3 kmh 29.87 in1011.5 mb 0.00 in0.0 mm 0.00 in0.0 mm 0.00 in0.0 mm
07:23 AM 12.1°F-11.1°C 9.9°F-12.3°C 70% 6.1 mph SE9.8 kmh SE 6.1 mph9.8 kmh 29.86 in1011.2 mb 0.00 in0.0 mm 0.00 in0.0 mm 0.00 in0.0 mm
07:26 AM 12.2°F-11.0°C 9.9°F-12.3°C 69% 5.2 mph ESE8.4 kmh ESE 5.3 mph8.5 kmh 29.85 in1010.8 mb 0.00 in0.0 mm 0.00 in0.0 mm 0.00 in0.0 mm
07:29 AM 12.4°F-10.9°C 10.1°F-12.2°C 69% 6.4 mph ESE10.3 kmh ESE 6.4 mph10.3 kmh 29.85 in1010.8 mb 0.00 in0.0 mm 0.00 in0.0 mm 0.00 in0.0 mm
07:32 AM 12.4°F-10.9°C 10.1°F-12.2°C 69% 12.9 mph SSE20.8 kmh SSE 13.0 mph20.9 kmh 29.85 in1010.8 mb 0.00 in0.0 mm 0.00 in0.0 mm 0.00 in0.0 mm
07:35 AM 12.7°F-10.7°C 9.8°F-12.3°C 68% 15.3 mph ESE24.6 kmh ESE 15.5 mph24.9 kmh 29.85 in1010.8 mb 0.00 in0.0 mm 0.00 in0.0 mm 0.00 in0.0 mm
07:38 AM 12.7°F-10.7°C 10.0°F-12.2°C 68% 6.8 mph E10.9 kmh E 6.8 mph10.9 kmh 29.85 in1010.8 mb 0.00 in0.0 mm 0.00 in0.0 mm 0.00 in0.0 mm
07:41 AM 12.5°F-10.8°C 9.8°F-12.3°C 67% 3.6 mph SSW5.8 kmh SSW 3.6 mph5.8 kmh 29.85 in1010.8 mb 0.00 in0.0 mm 0.00 in0.0 mm 0.00 in0.0 mm
07:44 AM 12.5°F-10.8°C 10.1°F-12.2°C 68% 3.2 mph SSE5.1 kmh SSE 3.2 mph5.1 kmh 29.86 in1011.2 mb 0.00 in0.0 mm 0.00 in0.0 mm 0.00 in0.0 mm
07:47 AM 12.9°F-10.6°C 9.8°F-12.3°C 68% 6.3 mph E10.1 kmh E 6.4 mph10.3 kmh 29.85 in1010.8 mb 0.00 in0.0 mm 0.00 in0.0 mm 0.00 in0.0 mm
07:50 AM 13.1°F-10.5°C 9.8°F-12.3°C 68% 10.9 mph SE17.5 kmh SE 10.9 mph17.5 kmh 29.85 in1010.8 mb 0.00 in0.0 mm 0.00 in0.0 mm 0.00 in0.0 mm
07:53 AM 13.3°F-10.4°C 10.4°F-12.0°C 68% 2.8 mph E4.5 kmh E 2.8 mph4.5 kmh 29.85 in1010.8 mb 0.00 in0.0 mm 0.00 in0.0 mm 0.00 in0.0 mm
07:56 AM 13.4°F-10.3°C 10.0°F-12.2°C 67% 9.5 mph E15.3 kmh E 9.7 mph15.6 kmh 29.85 in1010.8 mb 0.00 in0.0 mm 0.00 in0.0 mm 0.00 in0.0 mm
07:59 AM 13.3°F-10.4°C 10.5°F-11.9°C 67% 6.5 mph ESE10.5 kmh ESE 6.5 mph10.5 kmh 29.85 in1010.8 mb 0.00 in0.0 mm 0.00 in0.0 mm 0.00 in0.0 mm
08:02 AM 13.2°F-10.4°C 9.6°F-12.4°C 67% 5.9 mph E9.5 kmh E 5.9 mph9.5 kmh 29.85 in1010.8 mb 0.00 in0.0 mm 0.00 in0.0 mm 0.00 in0.0 mm
08:05 AM 13.2°F-10.4°C 10.1°F-12.2°C 68% 4.0 mph E6.4 kmh E 4.1 mph6.6 kmh 29.85 in1010.8 mb 0.00 in0.0 mm 0.00 in0.0 mm 0.00 in0.0 mm
08:08 AM 13.2°F-10.4°C 10.0°F-12.2°C 67% 5.2 mph E8.4 kmh E 5.3 mph8.5 kmh 29.84 in1010.5 mb 0.00 in0.0 mm 0.00 in0.0 mm 0.00 in0.0 mm
08:11 AM 13.3°F-10.4°C 10.1°F-12.2°C 68% 3.6 mph ESE5.8 kmh ESE 3.6 mph5.8 kmh 29.84 in1010.5 mb 0.00 in0.0 mm 0.00 in0.0 mm 0.00 in0.0 mm
08:14 AM 13.4°F-10.3°C 10.3°F-12.1°C 68% 4.0 mph E6.4 kmh E 4.0 mph6.4 kmh 29.85 in1010.8 mb 0.00 in0.0 mm 0.00 in0.0 mm 0.00 in0.0 mm
08:17 AM 13.7°F-10.2°C 10.3°F-12.1°C 68% 2.0 mph SSE3.2 kmh SSE 2.0 mph3.2 kmh 29.85 in1010.8 mb 0.00 in0.0 mm 0.00 in0.0 mm 0.00 in0.0 mm
08:20 AM 13.9°F-10.1°C 10.6°F-11.9°C 68% 4.0 mph E6.4 kmh E 4.0 mph6.4 kmh 29.84 in1010.5 mb 0.00 in0.0 mm 0.00 in0.0 mm 0.00 in0.0 mm
08:23 AM 14.0°F-10.0°C 10.3°F-12.1°C 67% 6.9 mph SW11.1 kmh SW 6.9 mph11.1 kmh 29.84 in1010.5 mb 0.00 in0.0 mm 0.00 in0.0 mm 0.00 in0.0 mm
08:26 AM 14.3°F-9.8°C 10.3°F-12.1°C 67% 8.1 mph E13.0 kmh E 8.1 mph13.0 kmh 29.84 in1010.5 mb 0.00 in0.0 mm 0.00 in0.0 mm 0.00 in0.0 mm
08:29 AM 14.9°F-9.5°C 10.2°F-12.1°C 67% 14.8 mph E23.8 kmh E 15.0 mph24.1 kmh 29.84 in1010.5 mb 0.00 in0.0 mm 0.00 in0.0 mm 0.00 in0.0 mm
08:32 AM 15.4°F-9.2°C 10.7°F-11.8°C 66% 8.8 mph SE14.2 kmh SE 8.8 mph14.2 kmh 29.84 in1010.5 mb 0.00 in0.0 mm 0.00 in0.0 mm 0.00 in0.0 mm
08:35 AM 15.7°F-9.1°C 10.6°F-11.9°C 66% 9.1 mph ESE14.6 kmh ESE 9.2 mph14.8 kmh 29.84 in1010.5 mb 0.00 in0.0 mm 0.00 in0.0 mm 0.00 in0.0 mm
08:38 AM 16.0°F-8.9°C 10.9°F-11.7°C 65% 5.1 mph ESE8.2 kmh ESE 5.2 mph8.4 kmh 29.84 in1010.5 mb 0.00 in0.0 mm 0.00 in0.0 mm 0.00 in0.0 mm
08:41 AM 16.1°F-8.8°C 10.7°F-11.8°C 65% 3.1 mph SE5.0 kmh SE 3.2 mph5.1 kmh 29.84 in1010.5 mb 0.00 in0.0 mm 0.00 in0.0 mm 0.00 in0.0 mm
08:44 AM 16.7°F-8.5°C 10.8°F-11.8°C 64% 5.6 mph ESE9.0 kmh ESE 5.7 mph9.2 kmh 29.84 in1010.5 mb 0.00 in0.0 mm 0.00 in0.0 mm 0.00 in0.0 mm
08:47 AM 17.2°F-8.2°C 11.2°F-11.6°C 64% 1.6 mph SSE2.6 kmh SSE 1.6 mph2.6 kmh 29.84 in1010.5 mb 0.00 in0.0 mm 0.00 in0.0 mm 0.00 in0.0 mm
08:50 AM 17.0°F-8.3°C 11.0°F-11.7°C 63% 4.9 mph E7.9 kmh E 4.9 mph7.9 kmh 29.84 in1010.5 mb 0.00 in0.0 mm 0.00 in0.0 mm 0.00 in0.0 mm
08:53 AM 17.5°F-8.1°C 11.1°F-11.6°C 63% 4.8 mph SE7.7 kmh SE 4.9 mph7.9 kmh 29.84 in1010.5 mb 0.00 in0.0 mm 0.00 in0.0 mm 0.00 in0.0 mm
08:56 AM 17.6°F-8.0°C 11.5°F-11.4°C 63% 5.6 mph SSE9.0 kmh SSE 5.6 mph9.0 kmh 29.84 in1010.5 mb 0.00 in0.0 mm 0.00 in0.0 mm 0.00 in0.0 mm
08:59 AM 17.6°F-8.0°C 11.4°F-11.4°C 62% 5.5 mph ESE8.9 kmh ESE 5.5 mph8.9 kmh 29.84 in1010.5 mb 0.00 in0.0 mm 0.00 in0.0 mm 0.00 in0.0 mm
09:02 AM 17.9°F-7.8°C 11.6°F-11.3°C 62% 6.1 mph SE9.8 kmh SE 6.1 mph9.8 kmh 29.84 in1010.5 mb 0.00 in0.0 mm 0.00 in0.0 mm 0.00 in0.0 mm
09:05 AM 18.2°F-7.7°C 11.9°F-11.2°C 62% 7.3 mph ESE11.7 kmh ESE 7.3 mph11.7 kmh 29.84 in1010.5 mb 0.00 in0.0 mm 0.00 in0.0 mm 0.00 in0.0 mm
09:08 AM 18.7°F-7.4°C 12.2°F-11.0°C 61% 2.8 mph SE4.5 kmh SE 2.8 mph4.5 kmh 29.85 in1010.8 mb 0.00 in0.0 mm 0.00 in0.0 mm 0.00 in0.0 mm
09:11 AM 18.6°F-7.4°C 12.1°F-11.1°C 61% 0.8 mph ESE1.3 kmh ESE 0.8 mph1.3 kmh 29.84 in1010.5 mb 0.00 in0.0 mm 0.00 in0.0 mm 0.00 in0.0 mm
09:14 AM 18.2°F-7.7°C 11.7°F-11.3°C 61% 5.5 mph SE8.9 kmh SE 5.6 mph9.0 kmh 29.84 in1010.5 mb 0.00 in0.0 mm 0.00 in0.0 mm 0.00 in0.0 mm
09:17 AM 17.8°F-7.9°C 11.4°F-11.4°C 61% 13.9 mph SE22.4 kmh SE 14.0 mph22.5 kmh 29.84 in1010.5 mb 0.00 in0.0 mm 0.00 in0.0 mm 0.00 in0.0 mm
09:20 AM 17.5°F-8.1°C 11.5°F-11.4°C 61% 7.3 mph SE11.7 kmh SE 7.3 mph11.7 kmh 29.84 in1010.5 mb 0.00 in0.0 mm 0.00 in0.0 mm 0.00 in0.0 mm
09:23 AM 17.6°F-8.0°C 11.4°F-11.4°C 61% 4.8 mph SE7.7 kmh SE 4.8 mph7.7 kmh 29.84 in1010.5 mb 0.00 in0.0 mm 0.00 in0.0 mm 0.00 in0.0 mm
09:26 AM 17.8°F-7.9°C 11.8°F-11.2°C 62% 2.0 mph SE3.2 kmh SE 2.0 mph3.2 kmh 29.85 in1010.8 mb 0.00 in0.0 mm 0.00 in0.0 mm 0.00 in0.0 mm
09:29 AM 17.8°F-7.9°C 11.7°F-11.3°C 62% 3.5 mph SE5.6 kmh SE 3.6 mph5.8 kmh 29.84 in1010.5 mb 0.00 in0.0 mm 0.00 in0.0 mm 0.00 in0.0 mm
09:32 AM 17.7°F-7.9°C 11.3°F-11.5°C 61% 8.5 mph NNW13.7 kmh NNW 8.5 mph13.7 kmh 29.84 in1010.5 mb 0.00 in0.0 mm 0.00 in0.0 mm 0.00 in0.0 mm
09:35 AM 18.6°F-7.4°C 11.7°F-11.3°C 62% 8.9 mph SE14.3 kmh SE 8.9 mph14.3 kmh 29.84 in1010.5 mb 0.00 in0.0 mm 0.00 in0.0 mm 0.00 in0.0 mm
09:38 AM 18.2°F-7.7°C 11.5°F-11.4°C 61% 4.4 mph ESE7.1 kmh ESE 4.4 mph7.1 kmh 29.84 in1010.5 mb 0.00 in0.0 mm 0.00 in0.0 mm 0.00 in0.0 mm
09:41 AM 18.2°F-7.7°C 11.7°F-11.3°C 61% 6.8 mph SE10.9 kmh SE 6.9 mph11.1 kmh 29.84 in1010.5 mb 0.00 in0.0 mm 0.00 in0.0 mm 0.00 in0.0 mm
09:44 AM 17.6°F-8.0°C 12.1°F-11.1°C 61% 2.4 mph NNW3.9 kmh NNW 2.4 mph3.9 kmh 29.84 in1010.5 mb 0.00 in0.0 mm 0.00 in0.0 mm 0.00 in0.0 mm
09:47 AM 17.9°F-7.8°C 12.5°F-10.8°C 61% 4.3 mph SE6.9 kmh SE 4.3 mph6.9 kmh 29.84 in1010.5 mb 0.00 in0.0 mm 0.00 in0.0 mm 0.00 in0.0 mm
09:50 AM 17.9°F-7.8°C 11.9°F-11.2°C 61% 9.7 mph SE15.6 kmh SE 9.7 mph15.6 kmh 29.84 in1010.5 mb 0.00 in0.0 mm 0.00 in0.0 mm 0.00 in0.0 mm
09:53 AM 18.6°F-7.4°C 12.2°F-11.0°C 61% 10.1 mph ESE16.3 kmh ESE 10.1 mph16.3 kmh 29.84 in1010.5 mb 0.00 in0.0 mm 0.00 in0.0 mm 0.00 in0.0 mm
09:56 AM 19.1°F-7.2°C 11.9°F-11.2°C 61% 10.5 mph SSE16.9 kmh SSE 10.6 mph17.1 kmh 29.83 in1010.2 mb 0.00 in0.0 mm 0.00 in0.0 mm 0.00 in0.0 mm
09:59 AM 19.1°F-7.2°C 12.2°F-11.0°C 60% 4.8 mph E7.7 kmh E 4.8 mph7.7 kmh 29.83 in1010.2 mb 0.00 in0.0 mm 0.00 in0.0 mm 0.00 in0.0 mm
10:02 AM 19.7°F-6.8°C 12.2°F-11.0°C 60% 11.1 mph ESE17.9 kmh ESE 11.2 mph18.0 kmh 29.82 in1009.8 mb 0.00 in0.0 mm 0.00 in0.0 mm 0.00 in0.0 mm
10:05 AM 19.2°F-7.1°C 12.4°F-10.9°C 59% 2.0 mph SE3.2 kmh SE 2.0 mph3.2 kmh 29.82 in1009.8 mb 0.00 in0.0 mm 0.00 in0.0 mm 0.00 in0.0 mm
10:08 AM 19.0°F-7.2°C 12.3°F-10.9°C 59% 10.4 mph SE16.7 kmh SE 10.5 mph16.9 kmh 29.82 in1009.8 mb 0.00 in0.0 mm 0.00 in0.0 mm 0.00 in0.0 mm
10:11 AM 18.3°F-7.6°C 11.9°F-11.2°C 59% 5.3 mph E8.5 kmh E 5.3 mph8.5 kmh 29.82 in1009.8 mb 0.00 in0.0 mm 0.00 in0.0 mm 0.00 in0.0 mm
10:14 AM 18.2°F-7.7°C 12.1°F-11.1°C 60% 4.4 mph ESE7.1 kmh ESE 4.4 mph7.1 kmh 29.82 in1009.8 mb 0.00 in0.0 mm 0.00 in0.0 mm 0.00 in0.0 mm
10:17 AM 18.2°F-7.7°C 12.0°F-11.1°C 60% 7.7 mph ESE12.4 kmh ESE 7.7 mph12.4 kmh 29.82 in1009.8 mb 0.00 in0.0 mm 0.00 in0.0 mm 0.00 in0.0 mm
10:20 AM 19.3°F-7.1°C 12.6°F-10.8°C 61% 5.9 mph SE9.5 kmh SE 6.0 mph9.7 kmh 29.82 in1009.8 mb 0.00 in0.0 mm 0.00 in0.0 mm 0.00 in0.0 mm
10:23 AM 20.2°F-6.6°C 12.9°F-10.6°C 60% 4.0 mph E6.4 kmh E 4.1 mph6.6 kmh 29.82 in1009.8 mb 0.00 in0.0 mm 0.00 in0.0 mm 0.00 in0.0 mm
10:26 AM 20.2°F-6.6°C 12.9°F-10.6°C 58% 8.5 mph SE13.7 kmh SE 8.6 mph13.8 kmh 29.81 in1009.5 mb 0.00 in0.0 mm 0.00 in0.0 mm 0.00 in0.0 mm
10:29 AM 20.6°F-6.3°C 12.9°F-10.6°C 59% 5.6 mph ENE9.0 kmh ENE 5.6 mph9.0 kmh 29.81 in1009.5 mb 0.00 in0.0 mm 0.00 in0.0 mm 0.00 in0.0 mm
10:32 AM 20.4°F-6.4°C 13.0°F-10.6°C 57% 2.4 mph E3.9 kmh E 2.4 mph3.9 kmh 29.81 in1009.5 mb 0.00 in0.0 mm 0.00 in0.0 mm 0.00 in0.0 mm
10:35 AM 20.8°F-6.2°C 12.8°F-10.7°C 57% 6.5 mph ESE10.5 kmh ESE 6.5 mph10.5 kmh 29.81 in1009.5 mb 0.00 in0.0 mm 0.00 in0.0 mm 0.00 in0.0 mm
10:38 AM 21.8°F-5.7°C 13.7°F-10.2°C 57% 3.2 mph ESE5.1 kmh ESE 3.2 mph5.1 kmh 29.81 in1009.5 mb 0.00 in0.0 mm 0.00 in0.0 mm 0.00 in0.0 mm
10:41 AM 22.1°F-5.5°C 13.9°F-10.1°C 57% 5.5 mph E8.9 kmh E 5.5 mph8.9 kmh 29.81 in1009.5 mb 0.00 in0.0 mm 0.00 in0.0 mm 0.00 in0.0 mm
10:44 AM 21.9°F-5.6°C 13.5°F-10.3°C 56% 3.2 mph NNW5.1 kmh NNW 3.2 mph5.1 kmh 29.81 in1009.5 mb 0.00 in0.0 mm 0.00 in0.0 mm 0.00 in0.0 mm
10:47 AM 21.9°F-5.6°C 13.4°F-10.3°C 55% 12.6 mph E20.3 kmh E 12.6 mph20.3 kmh 29.81 in1009.5 mb 0.00 in0.0 mm 0.00 in0.0 mm 0.00 in0.0 mm
10:50 AM 21.7°F-5.7°C 13.0°F-10.6°C 55% 4.0 mph NNW6.4 kmh NNW 4.1 mph6.6 kmh 29.81 in1009.5 mb 0.00 in0.0 mm 0.00 in0.0 mm 0.00 in0.0 mm
10:53 AM 22.4°F-5.3°C 14.2°F-9.9°C 56% 7.2 mph NNW11.6 kmh NNW 7.2 mph11.6 kmh 29.80 in1009.1 mb 0.00 in0.0 mm 0.00 in0.0 mm 0.00 in0.0 mm
10:56 AM 22.2°F-5.4°C 13.4°F-10.3°C 54% 10.0 mph SE16.1 kmh SE 10.1 mph16.3 kmh 29.80 in1009.1 mb 0.00 in0.0 mm 0.00 in0.0 mm 0.00 in0.0 mm
10:59 AM 21.9°F-5.6°C 13.0°F-10.6°C 54% 12.6 mph SE20.3 kmh SE 12.7 mph20.4 kmh 29.80 in1009.1 mb 0.00 in0.0 mm 0.00 in0.0 mm 0.00 in0.0 mm
11:02 AM 22.1°F-5.5°C 13.4°F-10.3°C 54% 4.8 mph SE7.7 kmh SE 4.9 mph7.9 kmh 29.79 in1008.8 mb 0.00 in0.0 mm 0.00 in0.0 mm 0.00 in0.0 mm
11:05 AM 22.4°F-5.3°C 13.6°F-10.2°C 54% 9.8 mph ESE15.8 kmh ESE 9.8 mph15.8 kmh 29.79 in1008.8 mb 0.00 in0.0 mm 0.00 in0.0 mm 0.00 in0.0 mm
11:08 AM 22.8°F-5.1°C 13.9°F-10.1°C 54% 10.0 mph ESE16.1 kmh ESE 10.1 mph16.3 kmh 29.79 in1008.8 mb 0.00 in0.0 mm 0.00 in0.0 mm 0.00 in0.0 mm
11:11 AM 22.1°F-5.5°C 13.3°F-10.4°C 53% 4.4 mph SSE7.1 kmh SSE 4.5 mph7.2 kmh 29.79 in1008.8 mb 0.00 in0.0 mm 0.00 in0.0 mm 0.00 in0.0 mm
11:14 AM 22.6°F-5.2°C 13.5°F-10.3°C 53% 2.0 mph SE3.2 kmh SE 2.0 mph3.2 kmh 29.79 in1008.8 mb 0.00 in0.0 mm 0.00 in0.0 mm 0.00 in0.0 mm
11:17 AM 23.1°F-4.9°C 13.8°F-10.1°C 54% 4.8 mph E7.7 kmh E 4.8 mph7.7 kmh 29.79 in1008.8 mb 0.00 in0.0 mm 0.00 in0.0 mm 0.00 in0.0 mm
11:20 AM 23.5°F-4.7°C 13.9°F-10.1°C 53% 1.6 mph ESE2.6 kmh ESE 1.6 mph2.6 kmh 29.79 in1008.8 mb 0.00 in0.0 mm 0.00 in0.0 mm 0.00 in0.0 mm
11:23 AM 24.2°F-4.3°C 13.9°F-10.1°C 53% 4.8 mph SE7.7 kmh SE 4.8 mph7.7 kmh 29.79 in1008.8 mb 0.00 in0.0 mm 0.00 in0.0 mm 0.00 in0.0 mm
11:26 AM 23.6°F-4.7°C 13.6°F-10.2°C 53% 2.4 mph NNW3.9 kmh NNW 2.5 mph4.0 kmh 29.79 in1008.8 mb 0.00 in0.0 mm 0.00 in0.0 mm 0.00 in0.0 mm
11:29 AM 23.9°F-4.5°C 13.9°F-10.1°C 53% 2.8 mph E4.5 kmh E 2.8 mph4.5 kmh 29.78 in1008.5 mb 0.00 in0.0 mm 0.00 in0.0 mm 0.00 in0.0 mm
11:32 AM 24.4°F-4.2°C 14.6°F-9.7°C 53% 3.6 mph ESE5.8 kmh ESE 3.6 mph5.8 kmh 29.78 in1008.5 mb 0.00 in0.0 mm 0.00 in0.0 mm 0.00 in0.0 mm
11:35 AM 23.9°F-4.5°C 13.8°F-10.1°C 52% 5.2 mph SE8.4 kmh SE 5.2 mph8.4 kmh 29.78 in1008.5 mb 0.00 in0.0 mm 0.00 in0.0 mm 0.00 in0.0 mm
11:38 AM 24.7°F-4.1°C 14.5°F-9.7°C 52% 4.8 mph SE7.7 kmh SE 4.9 mph7.9 kmh 29.78 in1008.5 mb 0.00 in0.0 mm 0.00 in0.0 mm 0.00 in0.0 mm
11:41 AM 24.5°F-4.2°C 14.4°F-9.8°C 51% 3.2 mph E5.1 kmh E 3.3 mph5.3 kmh 29.77 in1008.1 mb 0.00 in0.0 mm 0.00 in0.0 mm 0.00 in0.0 mm
11:44 AM 24.9°F-3.9°C 14.8°F-9.6°C 52% 8.1 mph SE13.0 kmh SE 8.1 mph13.0 kmh 29.77 in1008.1 mb 0.00 in0.0 mm 0.00 in0.0 mm 0.00 in0.0 mm
11:47 AM 25.0°F-3.9°C 14.5°F-9.7°C 51% 0.8 mph SE1.3 kmh SE 0.8 mph1.3 kmh 29.77 in1008.1 mb 0.00 in0.0 mm 0.00 in0.0 mm 0.00 in0.0 mm
11:50 AM 25.5°F-3.6°C 14.9°F-9.5°C 51% 3.5 mph S5.6 kmh S 3.5 mph5.6 kmh 29.77 in1008.1 mb 0.00 in0.0 mm 0.00 in0.0 mm 0.00 in0.0 mm
11:53 AM 24.8°F-4.0°C 14.3°F-9.8°C 50% 3.2 mph E5.1 kmh E 3.2 mph5.1 kmh 29.77 in1008.1 mb 0.00 in0.0 mm 0.00 in0.0 mm 0.00 in0.0 mm
11:56 AM 25.5°F-3.6°C 14.7°F-9.6°C 50% 7.7 mph SSE12.4 kmh SSE 7.7 mph12.4 kmh 29.77 in1008.1 mb 0.00 in0.0 mm 0.00 in0.0 mm 0.00 in0.0 mm
11:59 AM 25.9°F-3.4°C 15.1°F-9.4°C 50% 6.1 mph SE9.8 kmh SE 6.1 mph9.8 kmh 29.77 in1008.1 mb 0.00 in0.0 mm 0.00 in0.0 mm 0.00 in0.0 mm
12:02 PM 26.0°F-3.3°C 14.6°F-9.7°C 49% 7.6 mph ESE12.2 kmh ESE 7.6 mph12.2 kmh 29.77 in1008.1 mb 0.00 in0.0 mm 0.00 in0.0 mm 0.00 in0.0 mm
12:05 PM 25.8°F-3.4°C 14.7°F-9.6°C 49% 12.4 mph SE20.0 kmh SE 12.5 mph20.1 kmh 29.77 in1008.1 mb 0.00 in0.0 mm 0.00 in0.0 mm 0.00 in0.0 mm
12:08 PM 26.4°F-3.1°C 15.0°F-9.4°C 49% 8.5 mph SE13.7 kmh SE 8.6 mph13.8 kmh 29.77 in1008.1 mb 0.00 in0.0 mm 0.00 in0.0 mm 0.00 in0.0 mm
12:11 PM 25.7°F-3.5°C 14.5°F-9.7°C 49% 8.9 mph SSE14.3 kmh SSE 8.9 mph14.3 kmh 29.77 in1008.1 mb 0.00 in0.0 mm 0.00 in0.0 mm 0.00 in0.0 mm
12:14 PM 26.6°F-3.0°C 15.0°F-9.4°C 48% 5.3 mph ESE8.5 kmh ESE 5.3 mph8.5 kmh 29.77 in1008.1 mb 0.00 in0.0 mm 0.00 in0.0 mm 0.00 in0.0 mm
12:17 PM 26.2°F-3.2°C 14.3°F-9.8°C 48% 9.5 mph SE15.3 kmh SE 9.5 mph15.3 kmh 29.77 in1008.1 mb 0.00 in0.0 mm 0.00 in0.0 mm 0.00 in0.0 mm
12:20 PM 26.7°F-2.9°C 14.7°F-9.6°C 48% 6.9 mph NNW11.1 kmh NNW 6.9 mph11.1 kmh 29.77 in1008.1 mb 0.00 in0.0 mm 0.00 in0.0 mm 0.00 in0.0 mm
12:23 PM 26.6°F-3.0°C 14.7°F-9.6°C 48% 11.7 mph SE18.8 kmh SE 11.7 mph18.8 kmh 29.77 in1008.1 mb 0.00 in0.0 mm 0.00 in0.0 mm 0.00 in0.0 mm
12:26 PM 26.6°F-3.0°C 14.8°F-9.6°C 48% 5.2 mph SE8.4 kmh SE 5.3 mph8.5 kmh 29.77 in1008.1 mb 0.00 in0.0 mm 0.00 in0.0 mm 0.00 in0.0 mm
12:29 PM 26.7°F-2.9°C 14.7°F-9.6°C 48% 5.6 mph NE9.0 kmh NE 5.7 mph9.2 kmh 29.76 in1007.8 mb 0.00 in0.0 mm 0.00 in0.0 mm 0.00 in0.0 mm
12:32 PM 26.5°F-3.1°C 14.3°F-9.8°C 47% 3.7 mph S6.0 kmh S 3.7 mph6.0 kmh 29.76 in1007.8 mb 0.00 in0.0 mm 0.00 in0.0 mm 0.00 in0.0 mm
12:35 PM 27.2°F-2.7°C 15.0°F-9.4°C 48% 0.8 mph SE1.3 kmh SE 0.8 mph1.3 kmh 29.76 in1007.8 mb 0.00 in0.0 mm 0.00 in0.0 mm 0.00 in0.0 mm
12:38 PM 26.9°F-2.8°C 14.9°F-9.5°C 47% 17.5 mph SE28.2 kmh SE 17.7 mph28.5 kmh 29.76 in1007.8 mb 0.00 in0.0 mm 0.00 in0.0 mm 0.00 in0.0 mm
12:41 PM 26.6°F-3.0°C 14.5°F-9.7°C 47% 10.5 mph SE16.9 kmh SE 10.6 mph17.1 kmh 29.76 in1007.8 mb 0.00 in0.0 mm 0.00 in0.0 mm 0.00 in0.0 mm
12:44 PM 28.2°F-2.1°C 15.3°F-9.3°C 48% 7.9 mph ESE12.7 kmh ESE 7.9 mph12.7 kmh 29.76 in1007.8 mb 0.00 in0.0 mm 0.00 in0.0 mm 0.00 in0.0 mm
12:47 PM 27.3°F-2.6°C 15.3°F-9.3°C 47% 6.0 mph SE9.7 kmh SE 6.0 mph9.7 kmh 29.76 in1007.8 mb 0.00 in0.0 mm 0.00 in0.0 mm 0.00 in0.0 mm
12:50 PM 28.7°F-1.8°C 14.4°F-9.8°C 47% 5.7 mph SE9.2 kmh SE 5.7 mph9.2 kmh 29.76 in1007.8 mb 0.00 in0.0 mm 0.00 in0.0 mm 0.00 in0.0 mm
12:53 PM 28.1°F-2.2°C 15.2°F-9.3°C 46% 7.3 mph SSE11.7 kmh SSE 7.3 mph11.7 kmh 29.75 in1007.5 mb 0.00 in0.0 mm 0.00 in0.0 mm 0.00 in0.0 mm
12:56 PM 28.3°F-2.1°C 14.1°F-9.9°C 46% 7.9 mph SE12.7 kmh SE 8.0 mph12.9 kmh 29.75 in1007.5 mb 0.00 in0.0 mm 0.00 in0.0 mm 0.00 in0.0 mm
12:59 PM 28.3°F-2.1°C 13.5°F-10.3°C 45% 10.3 mph NNW16.6 kmh NNW 10.4 mph16.7 kmh 29.74 in1007.1 mb 0.00 in0.0 mm 0.00 in0.0 mm 0.00 in0.0 mm
01:02 PM 28.6°F-1.9°C 13.5°F-10.3°C 45% 13.0 mph NNW20.9 kmh NNW 13.1 mph21.1 kmh 29.74 in1007.1 mb 0.00 in0.0 mm 0.00 in0.0 mm 0.00 in0.0 mm
01:05 PM 28.2°F-2.1°C 15.0°F-9.4°C 45% 11.6 mph NNW18.7 kmh NNW 11.6 mph18.7 kmh 29.74 in1007.1 mb 0.00 in0.0 mm 0.00 in0.0 mm 0.00 in0.0 mm
01:08 PM 28.4°F-2.0°C 15.3°F-9.3°C 45% 6.1 mph SE9.8 kmh SE 6.1 mph9.8 kmh 29.74 in1007.1 mb 0.00 in0.0 mm 0.00 in0.0 mm 0.00 in0.0 mm
01:11 PM 28.1°F-2.2°C 13.7°F-10.2°C 46% 1.6 mph E2.6 kmh E 1.6 mph2.6 kmh 29.74 in1007.1 mb 0.00 in0.0 mm 0.00 in0.0 mm 0.00 in0.0 mm
01:14 PM 28.4°F-2.0°C 14.0°F-10.0°C 46% 7.7 mph NNW12.4 kmh NNW 7.8 mph12.6 kmh 29.74 in1007.1 mb 0.00 in0.0 mm 0.00 in0.0 mm 0.00 in0.0 mm
01:17 PM 27.8°F-2.3°C 13.2°F-10.4°C 45% 7.8 mph NNW12.6 kmh NNW 7.9 mph12.7 kmh 29.74 in1007.1 mb 0.00 in0.0 mm 0.00 in0.0 mm 0.00 in0.0 mm
01:20 PM 28.9°F-1.7°C 13.8°F-10.1°C 46% 7.8 mph NNW12.6 kmh NNW 7.9 mph12.7 kmh 29.74 in1007.1 mb 0.00 in0.0 mm 0.00 in0.0 mm 0.00 in0.0 mm
01:23 PM 29.0°F-1.7°C 13.8°F-10.1°C 45% Calm Calm -- 29.74 in1007.1 mb 0.00 in0.0 mm 0.00 in0.0 mm 0.00 in0.0 mm
01:26 PM 29.3°F-1.5°C 14.4°F-9.8°C 45% 4.0 mph NNW6.4 kmh NNW 4.0 mph6.4 kmh 29.73 in1006.8 mb 0.00 in0.0 mm 0.00 in0.0 mm 0.00 in0.0 mm
01:29 PM 30.0°F-1.1°C 15.2°F-9.3°C 46% 2.4 mph SE3.9 kmh SE 2.4 mph3.9 kmh 29.73 in1006.8 mb 0.00 in0.0 mm 0.00 in0.0 mm 0.00 in0.0 mm
01:32 PM 29.8°F-1.2°C 15.1°F-9.4°C 45% 0.4 mph ESE0.6 kmh ESE 0.4 mph0.6 kmh 29.73 in1006.8 mb 0.00 in0.0 mm 0.00 in0.0 mm 0.00 in0.0 mm
01:35 PM 29.6°F-1.3°C 14.6°F-9.7°C 45% 6.8 mph E10.9 kmh E 6.8 mph10.9 kmh 29.73 in1006.8 mb 0.00 in0.0 mm 0.00 in0.0 mm 0.00 in0.0 mm
01:38 PM 29.0°F-1.7°C 15.3°F-9.3°C 45% 4.0 mph E6.4 kmh E 4.1 mph6.6 kmh 29.73 in1006.8 mb 0.00 in0.0 mm 0.00 in0.0 mm 0.00 in0.0 mm
01:41 PM 29.1°F-1.6°C 14.4°F-9.8°C 44% 7.6 mph E12.2 kmh E 7.6 mph12.2 kmh 29.73 in1006.8 mb 0.00 in0.0 mm 0.00 in0.0 mm 0.00 in0.0 mm
01:44 PM 29.5°F-1.4°C 14.3°F-9.8°C 45% 8.3 mph ESE13.4 kmh ESE 8.3 mph13.4 kmh 29.73 in1006.8 mb 0.00 in0.0 mm 0.00 in0.0 mm 0.00 in0.0 mm
01:47 PM 29.3°F-1.5°C 14.6°F-9.7°C 44% 6.4 mph NNW10.3 kmh NNW 6.4 mph10.3 kmh 29.72 in1006.4 mb 0.00 in0.0 mm 0.00 in0.0 mm 0.00 in0.0 mm
01:50 PM 29.4°F-1.4°C 14.4°F-9.8°C 44% 9.3 mph NNW15.0 kmh NNW 9.4 mph15.1 kmh 29.72 in1006.4 mb 0.00 in0.0 mm 0.00 in0.0 mm 0.00 in0.0 mm
01:53 PM 29.1°F-1.6°C 14.1°F-9.9°C 44% 2.8 mph E4.5 kmh E 2.9 mph4.7 kmh 29.72 in1006.4 mb 0.00 in0.0 mm 0.00 in0.0 mm 0.00 in0.0 mm
01:56 PM 28.7°F-1.8°C 13.9°F-10.1°C 44% 9.0 mph SE14.5 kmh SE 9.0 mph14.5 kmh 29.72 in1006.4 mb 0.00 in0.0 mm 0.00 in0.0 mm 0.00 in0.0 mm
01:59 PM 29.1°F-1.6°C 14.3°F-9.8°C 44% 3.2 mph SSE5.1 kmh SSE 3.2 mph5.1 kmh 29.71 in1006.1 mb 0.00 in0.0 mm 0.00 in0.0 mm 0.00 in0.0 mm
02:02 PM 29.6°F-1.3°C 14.5°F-9.7°C 44% 12.1 mph SE19.5 kmh SE 12.2 mph19.6 kmh 29.71 in1006.1 mb 0.00 in0.0 mm 0.00 in0.0 mm 0.00 in0.0 mm
02:05 PM 29.3°F-1.5°C 14.4°F-9.8°C 44% 4.7 mph E7.6 kmh E 4.8 mph7.7 kmh 29.71 in1006.1 mb 0.00 in0.0 mm 0.00 in0.0 mm 0.00 in0.0 mm
02:08 PM 29.5°F-1.4°C 14.3°F-9.8°C 44% 9.2 mph E14.8 kmh E 9.2 mph14.8 kmh 29.71 in1006.1 mb 0.00 in0.0 mm 0.00 in0.0 mm 0.00 in0.0 mm
02:11 PM 29.0°F-1.7°C 14.2°F-9.9°C 44% 1.6 mph ESE2.6 kmh ESE 1.6 mph2.6 kmh 29.71 in1006.1 mb 0.00 in0.0 mm 0.00 in0.0 mm 0.00 in0.0 mm
02:14 PM 29.6°F-1.3°C 14.5°F-9.7°C 44% 5.7 mph SE9.2 kmh SE 5.7 mph9.2 kmh 29.71 in1006.1 mb 0.00 in0.0 mm 0.00 in0.0 mm 0.00 in0.0 mm
02:17 PM 29.9°F-1.2°C 14.5°F-9.7°C 44% 8.5 mph SE13.7 kmh SE 8.6 mph13.8 kmh 29.71 in1006.1 mb 0.00 in0.0 mm 0.00 in0.0 mm 0.00 in0.0 mm
02:20 PM 29.5°F-1.4°C 14.7°F-9.6°C 44% 8.9 mph NNW14.3 kmh NNW 8.9 mph14.3 kmh 29.71 in1006.1 mb 0.00 in0.0 mm 0.00 in0.0 mm 0.00 in0.0 mm
02:23 PM 29.8°F-1.2°C 14.7°F-9.6°C 45% 3.6 mph SE5.8 kmh SE 3.6 mph5.8 kmh 29.71 in1006.1 mb 0.00 in0.0 mm 0.00 in0.0 mm 0.00 in0.0 mm
02:26 PM 29.5°F-1.4°C 14.6°F-9.7°C 44% 4.4 mph ENE7.1 kmh ENE 4.4 mph7.1 kmh 29.70 in1005.8 mb 0.00 in0.0 mm 0.00 in0.0 mm 0.00 in0.0 mm
02:29 PM 29.8°F-1.2°C 14.8°F-9.6°C 45% 8.8 mph E14.2 kmh E 8.9 mph14.3 kmh 29.70 in1005.8 mb 0.00 in0.0 mm 0.00 in0.0 mm 0.00 in0.0 mm
02:32 PM 29.6°F-1.3°C 15.0°F-9.4°C 44% 3.6 mph SE5.8 kmh SE 3.6 mph5.8 kmh 29.70 in1005.8 mb 0.00 in0.0 mm 0.00 in0.0 mm 0.00 in0.0 mm
02:35 PM 29.8°F-1.2°C 15.1°F-9.4°C 44% 5.2 mph E8.4 kmh E 5.3 mph8.5 kmh 29.70 in1005.8 mb 0.00 in0.0 mm 0.00 in0.0 mm 0.00 in0.0 mm
02:38 PM 29.8°F-1.2°C 14.9°F-9.5°C 44% 13.1 mph ESE21.1 kmh ESE 13.1 mph21.1 kmh 29.70 in1005.8 mb 0.00 in0.0 mm 0.00 in0.0 mm 0.00 in0.0 mm
02:41 PM 30.2°F-1.0°C 15.2°F-9.3°C 45% 4.0 mph SSE6.4 kmh SSE 4.1 mph6.6 kmh 29.70 in1005.8 mb 0.00 in0.0 mm 0.00 in0.0 mm 0.00 in0.0 mm
02:44 PM 30.1°F-1.1°C 15.3°F-9.3°C 44% 2.8 mph ESE4.5 kmh ESE 2.9 mph4.7 kmh 29.70 in1005.8 mb 0.00 in0.0 mm 0.00 in0.0 mm 0.00 in0.0 mm
02:47 PM 29.6°F-1.3°C 15.4°F-9.2°C 44% 3.2 mph NNE5.1 kmh NNE 3.2 mph5.1 kmh 29.70 in1005.8 mb 0.00 in0.0 mm 0.00 in0.0 mm 0.00 in0.0 mm
02:50 PM 30.2°F-1.0°C 15.7°F-9.1°C 44% 6.3 mph S10.1 kmh S 6.4 mph10.3 kmh 29.70 in1005.8 mb 0.00 in0.0 mm 0.00 in0.0 mm 0.00 in0.0 mm
02:53 PM 29.5°F-1.4°C 15.0°F-9.4°C 44% 2.4 mph ESE3.9 kmh ESE 2.4 mph3.9 kmh 29.70 in1005.8 mb 0.00 in0.0 mm 0.00 in0.0 mm 0.00 in0.0 mm
02:56 PM 29.8°F-1.2°C 15.4°F-9.2°C 45% 1.2 mph SSE1.9 kmh SSE 1.2 mph1.9 kmh 29.69 in1005.4 mb 0.00 in0.0 mm 0.00 in0.0 mm 0.00 in0.0 mm
02:59 PM 29.4°F-1.4°C 15.1°F-9.4°C 44% 6.4 mph SE10.3 kmh SE 6.4 mph10.3 kmh 29.70 in1005.8 mb 0.00 in0.0 mm 0.00 in0.0 mm 0.00 in0.0 mm
03:02 PM 29.5°F-1.4°C 15.0°F-9.4°C 44% 3.2 mph SSE5.1 kmh SSE 3.2 mph5.1 kmh 29.69 in1005.4 mb 0.00 in0.0 mm 0.00 in0.0 mm 0.00 in0.0 mm
03:05 PM 29.4°F-1.4°C 15.2°F-9.3°C 45% 6.0 mph E9.7 kmh E 6.1 mph9.8 kmh 29.69 in1005.4 mb 0.00 in0.0 mm 0.00 in0.0 mm 0.00 in0.0 mm
03:08 PM 29.0°F-1.7°C 14.5°F-9.7°C 44% 11.3 mph ESE18.2 kmh ESE 11.3 mph18.2 kmh 29.69 in1005.4 mb 0.00 in0.0 mm 0.00 in0.0 mm 0.00 in0.0 mm
03:11 PM 29.4°F-1.4°C 15.3°F-9.3°C 45% 2.0 mph SSE3.2 kmh SSE 2.0 mph3.2 kmh 29.69 in1005.4 mb 0.00 in0.0 mm 0.00 in0.0 mm 0.00 in0.0 mm
03:14 PM 29.4°F-1.4°C 14.9°F-9.5°C 44% 5.2 mph ENE8.4 kmh ENE 5.3 mph8.5 kmh 29.69 in1005.4 mb 0.00 in0.0 mm 0.00 in0.0 mm 0.00 in0.0 mm
03:17 PM 29.4°F-1.4°C 15.4°F-9.2°C 45% 5.2 mph ESE8.4 kmh ESE 5.3 mph8.5 kmh 29.69 in1005.4 mb 0.00 in0.0 mm 0.00 in0.0 mm 0.00 in0.0 mm
03:20 PM 29.9°F-1.2°C 15.5°F-9.2°C 45% 1.2 mph E1.9 kmh E 1.2 mph1.9 kmh 29.69 in1005.4 mb 0.00 in0.0 mm 0.00 in0.0 mm 0.00 in0.0 mm
03:23 PM 29.5°F-1.4°C 15.1°F-9.4°C 44% 3.6 mph NNW5.8 kmh NNW 3.6 mph5.8 kmh 29.68 in1005.1 mb 0.00 in0.0 mm 0.00 in0.0 mm 0.00 in0.0 mm
03:26 PM 29.1°F-1.6°C 14.6°F-9.7°C 44% 5.5 mph ESE8.9 kmh ESE 5.5 mph8.9 kmh 29.68 in1005.1 mb 0.00 in0.0 mm 0.00 in0.0 mm 0.00 in0.0 mm
03:29 PM 29.4°F-1.4°C 15.3°F-9.3°C 45% 1.2 mph ENE1.9 kmh ENE 1.2 mph1.9 kmh 29.68 in1005.1 mb 0.00 in0.0 mm 0.00 in0.0 mm 0.00 in0.0 mm
03:32 PM 29.4°F-1.4°C 15.4°F-9.2°C 44% 3.6 mph S5.8 kmh S 3.6 mph5.8 kmh 29.68 in1005.1 mb 0.00 in0.0 mm 0.00 in0.0 mm 0.00 in0.0 mm
03:35 PM 29.2°F-1.6°C 15.0°F-9.4°C 44% 2.8 mph ESE4.5 kmh ESE 2.9 mph4.7 kmh 29.68 in1005.1 mb 0.00 in0.0 mm 0.00 in0.0 mm 0.00 in0.0 mm
03:38 PM 29.4°F-1.4°C 14.9°F-9.5°C 44% 5.2 mph ESE8.4 kmh ESE 5.2 mph8.4 kmh 29.68 in1005.1 mb 0.00 in0.0 mm 0.00 in0.0 mm 0.00 in0.0 mm
03:41 PM 29.2°F-1.6°C 15.1°F-9.4°C 44% 1.2 mph ESE1.9 kmh ESE 1.2 mph1.9 kmh 29.68 in1005.1 mb 0.00 in0.0 mm 0.00 in0.0 mm 0.00 in0.0 mm
03:44 PM 29.2°F-1.6°C 15.0°F-9.4°C 44% 2.0 mph ESE3.2 kmh ESE 2.0 mph3.2 kmh 29.68 in1005.1 mb 0.00 in0.0 mm 0.00 in0.0 mm 0.00 in0.0 mm
03:47 PM 29.0°F-1.7°C 14.6°F-9.7°C 44% 5.6 mph ESE9.0 kmh ESE 5.7 mph9.2 kmh 29.68 in1005.1 mb 0.00 in0.0 mm 0.00 in0.0 mm 0.00 in0.0 mm
03:50 PM 29.1°F-1.6°C 14.9°F-9.5°C 45% 4.4 mph E7.1 kmh E 4.5 mph7.2 kmh 29.68 in1005.1 mb 0.00 in0.0 mm 0.00 in0.0 mm 0.00 in0.0 mm
03:53 PM 28.9°F-1.7°C 14.2°F-9.9°C 44% 4.7 mph ENE7.6 kmh ENE 4.8 mph7.7 kmh 29.68 in1005.1 mb 0.00 in0.0 mm 0.00 in0.0 mm 0.00 in0.0 mm
03:56 PM 29.0°F-1.7°C 14.8°F-9.6°C 45% 2.4 mph E3.9 kmh E 2.4 mph3.9 kmh 29.68 in1005.1 mb 0.00 in0.0 mm 0.00 in0.0 mm 0.00 in0.0 mm
03:59 PM 29.0°F-1.7°C 14.9°F-9.5°C 45% 2.8 mph NNW4.5 kmh NNW 2.8 mph4.5 kmh 29.68 in1005.1 mb 0.00 in0.0 mm 0.00 in0.0 mm 0.00 in0.0 mm
04:02 PM 29.1°F-1.6°C 15.0°F-9.4°C 44% 6.0 mph SE9.7 kmh SE 6.0 mph9.7 kmh 29.68 in1005.1 mb 0.00 in0.0 mm 0.00 in0.0 mm 0.00 in0.0 mm
04:05 PM 28.7°F-1.8°C 14.8°F-9.6°C 44% 9.1 mph NNW14.6 kmh NNW 9.2 mph14.8 kmh 29.68 in1005.1 mb 0.00 in0.0 mm 0.00 in0.0 mm 0.00 in0.0 mm
04:08 PM 29.0°F-1.7°C 14.9°F-9.5°C 44% Calm Calm -- 29.68 in1005.1 mb 0.00 in0.0 mm 0.00 in0.0 mm 0.00 in0.0 mm
04:11 PM 28.5°F-1.9°C 14.4°F-9.8°C 44% 7.6 mph SSE12.2 kmh SSE 7.6 mph12.2 kmh 29.68 in1005.1 mb 0.00 in0.0 mm 0.00 in0.0 mm 0.00 in0.0 mm
04:14 PM 28.5°F-1.9°C 14.5°F-9.7°C 45% 8.0 mph SE12.9 kmh SE 8.1 mph13.0 kmh 29.68 in1005.1 mb 0.00 in0.0 mm 0.00 in0.0 mm 0.00 in0.0 mm
04:17 PM 29.0°F-1.7°C 14.9°F-9.5°C 45% 4.7 mph E7.6 kmh E 4.8 mph7.7 kmh 29.68 in1005.1 mb 0.00 in0.0 mm 0.00 in0.0 mm 0.00 in0.0 mm
04:20 PM 28.9°F-1.7°C 14.9°F-9.5°C 45% 0.8 mph NNW1.3 kmh NNW 0.8 mph1.3 kmh 29.68 in1005.1 mb 0.00 in0.0 mm 0.00 in0.0 mm 0.00 in0.0 mm
04:23 PM 28.7°F-1.8°C 14.5°F-9.7°C 45% 0.8 mph SE1.3 kmh SE 0.8 mph1.3 kmh 29.68 in1005.1 mb 0.00 in0.0 mm 0.00 in0.0 mm 0.00 in0.0 mm
04:26 PM 28.9°F-1.7°C 14.9°F-9.5°C 44% 7.9 mph NNW12.7 kmh NNW 8.0 mph12.9 kmh 29.67 in1004.7 mb 0.00 in0.0 mm 0.00 in0.0 mm 0.00 in0.0 mm
04:29 PM 28.4°F-2.0°C 14.5°F-9.7°C 44% 6.3 mph E10.1 kmh E 6.4 mph10.3 kmh 29.67 in1004.7 mb 0.00 in0.0 mm 0.00 in0.0 mm 0.00 in0.0 mm
04:32 PM 28.3°F-2.1°C 14.5°F-9.7°C 44% 3.6 mph ESE5.8 kmh ESE 3.6 mph5.8 kmh 29.68 in1005.1 mb 0.00 in0.0 mm 0.00 in0.0 mm 0.00 in0.0 mm
04:35 PM 28.3°F-2.1°C 14.5°F-9.7°C 44% 7.7 mph ESE12.4 kmh ESE 7.7 mph12.4 kmh 29.67 in1004.7 mb 0.00 in0.0 mm 0.00 in0.0 mm 0.00 in0.0 mm
04:38 PM 28.1°F-2.2°C 14.4°F-9.8°C 45% 5.0 mph SSE8.0 kmh SSE 5.1 mph8.2 kmh 29.67 in1004.7 mb 0.00 in0.0 mm 0.00 in0.0 mm 0.00 in0.0 mm
04:41 PM 28.0°F-2.2°C 14.2°F-9.9°C 45% 1.2 mph SE1.9 kmh SE 1.2 mph1.9 kmh 29.68 in1005.1 mb 0.00 in0.0 mm 0.00 in0.0 mm 0.00 in0.0 mm
04:44 PM 27.7°F-2.4°C 14.6°F-9.7°C 45% 1.6 mph SE2.6 kmh SE 1.6 mph2.6 kmh 29.68 in1005.1 mb 0.00 in0.0 mm 0.00 in0.0 mm 0.00 in0.0 mm
04:47 PM 27.5°F-2.5°C 14.5°F-9.7°C 46% 2.0 mph SE3.2 kmh SE 2.0 mph3.2 kmh 29.68 in1005.1 mb 0.00 in0.0 mm 0.00 in0.0 mm 0.00 in0.0 mm
04:50 PM 27.4°F-2.6°C 14.4°F-9.8°C 46% 2.4 mph ESE3.9 kmh ESE 2.4 mph3.9 kmh 29.68 in1005.1 mb 0.00 in0.0 mm 0.00 in0.0 mm 0.00 in0.0 mm
04:53 PM 27.3°F-2.6°C 14.0°F-10.0°C 46% 4.8 mph E7.7 kmh E 4.8 mph7.7 kmh 29.68 in1005.1 mb 0.00 in0.0 mm 0.00 in0.0 mm 0.00 in0.0 mm
04:56 PM 27.3°F-2.6°C 14.7°F-9.6°C 47% 3.2 mph ESE5.1 kmh ESE 3.2 mph5.1 kmh 29.68 in1005.1 mb 0.00 in0.0 mm 0.00 in0.0 mm 0.00 in0.0 mm
04:59 PM 27.3°F-2.6°C 14.6°F-9.7°C 47% 4.4 mph NNW7.1 kmh NNW 4.5 mph7.2 kmh 29.68 in1005.1 mb 0.00 in0.0 mm 0.00 in0.0 mm 0.00 in0.0 mm
05:02 PM 27.2°F-2.7°C 14.2°F-9.9°C 46% 6.4 mph SE10.3 kmh SE 6.4 mph10.3 kmh 29.68 in1005.1 mb 0.00 in0.0 mm 0.00 in0.0 mm 0.00 in0.0 mm
05:05 PM 26.8°F-2.9°C 14.6°F-9.7°C 47% 2.4 mph SE3.9 kmh SE 2.4 mph3.9 kmh 29.68 in1005.1 mb 0.00 in0.0 mm 0.00 in0.0 mm 0.00 in0.0 mm
05:08 PM 26.8°F-2.9°C 14.0°F-10.0°C 47% 4.4 mph SSE7.1 kmh SSE 4.5 mph7.2 kmh 29.68 in1005.1 mb 0.00 in0.0 mm 0.00 in0.0 mm 0.00 in0.0 mm
05:11 PM 26.6°F-3.0°C 14.3°F-9.8°C 47% 7.1 mph SE11.4 kmh SE 7.2 mph11.6 kmh 29.68 in1005.1 mb 0.00 in0.0 mm 0.00 in0.0 mm 0.00 in0.0 mm
05:14 PM 26.6°F-3.0°C 14.5°F-9.7°C 47% 8.3 mph ESE13.4 kmh ESE 8.3 mph13.4 kmh 29.67 in1004.7 mb 0.00 in0.0 mm 0.00 in0.0 mm 0.00 in0.0 mm
05:17 PM 26.4°F-3.1°C 14.4°F-9.8°C 47% 4.4 mph NNW7.1 kmh NNW 4.5 mph7.2 kmh 29.67 in1004.7 mb 0.00 in0.0 mm 0.00 in0.0 mm 0.00 in0.0 mm
05:20 PM 26.3°F-3.2°C 16.1°F-8.8°C 47% 1.6 mph E2.6 kmh E 1.6 mph2.6 kmh 29.67 in1004.7 mb 0.00 in0.0 mm 0.00 in0.0 mm 0.00 in0.0 mm
05:23 PM 26.0°F-3.3°C 14.8°F-9.6°C 48% 5.6 mph SE9.0 kmh SE 5.6 mph9.0 kmh 29.67 in1004.7 mb 0.00 in0.0 mm 0.00 in0.0 mm 0.00 in0.0 mm
05:26 PM 26.0°F-3.3°C 15.8°F-9.0°C 47% 6.9 mph NNW11.1 kmh NNW 6.9 mph11.1 kmh 29.67 in1004.7 mb 0.00 in0.0 mm 0.00 in0.0 mm 0.00 in0.0 mm
05:29 PM 25.8°F-3.4°C 16.1°F-8.8°C 47% 3.2 mph ESE5.1 kmh ESE 3.3 mph5.3 kmh 29.67 in1004.7 mb 0.00 in0.0 mm 0.00 in0.0 mm 0.00 in0.0 mm
05:32 PM 25.6°F-3.6°C 14.8°F-9.6°C 48% 3.6 mph SE5.8 kmh SE 3.7 mph6.0 kmh 29.67 in1004.7 mb 0.00 in0.0 mm 0.00 in0.0 mm 0.00 in0.0 mm
05:35 PM 25.5°F-3.6°C 14.5°F-9.7°C 48% 5.6 mph ESE9.0 kmh ESE 5.6 mph9.0 kmh 29.67 in1004.7 mb 0.00 in0.0 mm 0.00 in0.0 mm 0.00 in0.0 mm
05:38 PM 25.4°F-3.7°C 16.2°F-8.8°C 48% 1.2 mph SSE1.9 kmh SSE 1.2 mph1.9 kmh 29.67 in1004.7 mb 0.00 in0.0 mm 0.00 in0.0 mm 0.00 in0.0 mm
05:41 PM 25.3°F-3.7°C 16.3°F-8.7°C 48% 7.2 mph E11.6 kmh E 7.3 mph11.7 kmh 29.67 in1004.7 mb 0.00 in0.0 mm 0.00 in0.0 mm 0.00 in0.0 mm
05:44 PM 25.3°F-3.7°C 16.1°F-8.8°C 48% 2.4 mph ESE3.9 kmh ESE 2.4 mph3.9 kmh 29.67 in1004.7 mb 0.00 in0.0 mm 0.00 in0.0 mm 0.00 in0.0 mm
05:47 PM 24.9°F-3.9°C 16.4°F-8.7°C 49% 0.8 mph NNW1.3 kmh NNW 0.8 mph1.3 kmh 29.67 in1004.7 mb 0.00 in0.0 mm 0.00 in0.0 mm 0.00 in0.0 mm
05:50 PM 24.9°F-3.9°C 15.9°F-8.9°C 49% Calm Calm -- 29.67 in1004.7 mb 0.00 in0.0 mm 0.00 in0.0 mm 0.00 in0.0 mm
05:53 PM 24.5°F-4.2°C 16.3°F-8.7°C 49% 6.0 mph E9.7 kmh E 6.0 mph9.7 kmh 29.67 in1004.7 mb 0.00 in0.0 mm 0.00 in0.0 mm 0.00 in0.0 mm
05:56 PM 24.4°F-4.2°C 16.2°F-8.8°C 49% 2.4 mph E3.9 kmh E 2.4 mph3.9 kmh 29.67 in1004.7 mb 0.00 in0.0 mm 0.00 in0.0 mm 0.00 in0.0 mm
05:59 PM 24.4°F-4.2°C 16.0°F-8.9°C 49% 2.0 mph E3.2 kmh E 2.0 mph3.2 kmh 29.67 in1004.7 mb 0.00 in0.0 mm 0.00 in0.0 mm 0.00 in0.0 mm
06:02 PM 24.1°F-4.4°C 16.4°F-8.7°C 49% 3.6 mph S5.8 kmh S 3.6 mph5.8 kmh 29.67 in1004.7 mb 0.00 in0.0 mm 0.00 in0.0 mm 0.00 in0.0 mm
06:05 PM 23.9°F-4.5°C 16.3°F-8.7°C 50% 1.6 mph NNW2.6 kmh NNW 1.6 mph2.6 kmh 29.67 in1004.7 mb 0.00 in0.0 mm 0.00 in0.0 mm 0.00 in0.0 mm
06:08 PM 24.1°F-4.4°C 16.1°F-8.8°C 51% 6.7 mph ESE10.8 kmh ESE 6.7 mph10.8 kmh 29.67 in1004.7 mb 0.00 in0.0 mm 0.00 in0.0 mm 0.00 in0.0 mm
06:11 PM 24.0°F-4.4°C 16.1°F-8.8°C 52% 4.4 mph E7.1 kmh E 4.5 mph7.2 kmh 29.67 in1004.7 mb 0.00 in0.0 mm 0.00 in0.0 mm 0.00 in0.0 mm
06:14 PM 24.0°F-4.4°C 16.0°F-8.9°C 51% 5.2 mph SE8.4 kmh SE 5.2 mph8.4 kmh 29.67 in1004.7 mb 0.00 in0.0 mm 0.00 in0.0 mm 0.00 in0.0 mm
06:17 PM 23.8°F-4.6°C 15.9°F-8.9°C 52% Calm Calm -- 29.68 in1005.1 mb 0.00 in0.0 mm 0.00 in0.0 mm 0.00 in0.0 mm
06:20 PM 23.7°F-4.6°C 15.8°F-9.0°C 52% 4.0 mph SE6.4 kmh SE 4.0 mph6.4 kmh 29.68 in1005.1 mb 0.00 in0.0 mm 0.00 in0.0 mm 0.00 in0.0 mm
06:23 PM 23.8°F-4.6°C 15.8°F-9.0°C 52% 6.4 mph NNW10.3 kmh NNW 6.5 mph10.5 kmh 29.68 in1005.1 mb 0.00 in0.0 mm 0.00 in0.0 mm 0.00 in0.0 mm
06:26 PM 23.5°F-4.7°C 15.8°F-9.0°C 52% Calm Calm -- 29.68 in1005.1 mb 0.00 in0.0 mm 0.00 in0.0 mm 0.00 in0.0 mm
06:29 PM 23.3°F-4.8°C 15.3°F-9.3°C 52% 10.5 mph E16.9 kmh E 10.6 mph17.1 kmh 29.68 in1005.1 mb 0.00 in0.0 mm 0.00 in0.0 mm 0.00 in0.0 mm
06:32 PM 23.3°F-4.8°C 15.5°F-9.2°C 52% 4.8 mph ESE7.7 kmh ESE 4.8 mph7.7 kmh 29.68 in1005.1 mb 0.00 in0.0 mm 0.00 in0.0 mm 0.00 in0.0 mm
06:35 PM 23.1°F-4.9°C 15.4°F-9.2°C 53% 4.7 mph SE7.6 kmh SE 4.7 mph7.6 kmh 29.68 in1005.1 mb 0.00 in0.0 mm 0.00 in0.0 mm 0.00 in0.0 mm
06:38 PM 23.1°F-4.9°C 15.5°F-9.2°C 53% 6.1 mph NNW9.8 kmh NNW 6.1 mph9.8 kmh 29.68 in1005.1 mb 0.00 in0.0 mm 0.00 in0.0 mm 0.00 in0.0 mm
06:41 PM 23.0°F-5.0°C 15.3°F-9.3°C 53% 6.5 mph E10.5 kmh E 6.5 mph10.5 kmh 29.68 in1005.1 mb 0.00 in0.0 mm 0.00 in0.0 mm 0.00 in0.0 mm
06:44 PM 23.0°F-5.0°C 14.9°F-9.5°C 52% 1.2 mph SE1.9 kmh SE 1.2 mph1.9 kmh 29.68 in1005.1 mb 0.00 in0.0 mm 0.00 in0.0 mm 0.00 in0.0 mm
06:47 PM 22.7°F-5.2°C 15.5°F-9.2°C 53% 2.4 mph SSE3.9 kmh SSE 2.4 mph3.9 kmh 29.68 in1005.1 mb 0.00 in0.0 mm 0.00 in0.0 mm 0.00 in0.0 mm
06:50 PM 22.7°F-5.2°C 15.6°F-9.1°C 54% 4.5 mph SE7.2 kmh SE 4.5 mph7.2 kmh 29.68 in1005.1 mb 0.00 in0.0 mm 0.00 in0.0 mm 0.00 in0.0 mm
06:53 PM 22.4°F-5.3°C 15.6°F-9.1°C 53% 5.7 mph ENE9.2 kmh ENE 5.7 mph9.2 kmh 29.68 in1005.1 mb 0.00 in0.0 mm 0.00 in0.0 mm 0.00 in0.0 mm
06:56 PM 22.7°F-5.2°C 15.2°F-9.3°C 53% 2.0 mph ESE3.2 kmh ESE 2.0 mph3.2 kmh 29.68 in1005.1 mb 0.00 in0.0 mm 0.00 in0.0 mm 0.00 in0.0 mm
06:59 PM 22.4°F-5.3°C 15.3°F-9.3°C 54% 6.0 mph SE9.7 kmh SE 6.0 mph9.7 kmh 29.68 in1005.1 mb 0.00 in0.0 mm 0.00 in0.0 mm 0.00 in0.0 mm
07:02 PM 22.3°F-5.4°C 15.2°F-9.3°C 54% 0.8 mph ESE1.3 kmh ESE 0.8 mph1.3 kmh 29.68 in1005.1 mb 0.00 in0.0 mm 0.00 in0.0 mm 0.00 in0.0 mm
07:05 PM 22.2°F-5.4°C 15.2°F-9.3°C 54% 4.0 mph NNW6.4 kmh NNW 4.1 mph6.6 kmh 29.68 in1005.1 mb 0.00 in0.0 mm 0.00 in0.0 mm 0.00 in0.0 mm
07:08 PM 21.9°F-5.6°C 15.8°F-9.0°C 55% 2.4 mph SE3.9 kmh SE 2.4 mph3.9 kmh 29.68 in1005.1 mb 0.00 in0.0 mm 0.00 in0.0 mm 0.00 in0.0 mm
07:11 PM 21.8°F-5.7°C 15.6°F-9.1°C 54% 4.0 mph SE6.4 kmh SE 4.0 mph6.4 kmh 29.68 in1005.1 mb 0.00 in0.0 mm 0.00 in0.0 mm 0.00 in0.0 mm
07:14 PM 21.9°F-5.6°C 15.4°F-9.2°C 55% 4.1 mph SE6.6 kmh SE 4.1 mph6.6 kmh 29.68 in1005.1 mb 0.00 in0.0 mm 0.00 in0.0 mm 0.00 in0.0 mm
07:17 PM 21.9°F-5.6°C 15.4°F-9.2°C 55% 0.8 mph NNW1.3 kmh NNW 0.8 mph1.3 kmh 29.68 in1005.1 mb 0.00 in0.0 mm 0.00 in0.0 mm 0.00 in0.0 mm
07:20 PM 21.7°F-5.7°C 15.5°F-9.2°C 55% 0.8 mph SSE1.3 kmh SSE 0.8 mph1.3 kmh 29.68 in1005.1 mb 0.00 in0.0 mm 0.00 in0.0 mm 0.00 in0.0 mm
07:23 PM 21.7°F-5.7°C 15.1°F-9.4°C 55% 2.4 mph NNW3.9 kmh NNW 2.4 mph3.9 kmh 29.68 in1005.1 mb 0.00 in0.0 mm 0.00 in0.0 mm 0.00 in0.0 mm
07:26 PM 21.5°F-5.8°C 15.7°F-9.1°C 55% 2.8 mph E4.5 kmh E 2.9 mph4.7 kmh 29.68 in1005.1 mb 0.00 in0.0 mm 0.00 in0.0 mm 0.00 in0.0 mm
07:29 PM 21.2°F-6.0°C 15.9°F-8.9°C 55% 8.1 mph ESE13.0 kmh ESE 8.1 mph13.0 kmh 29.68 in1005.1 mb 0.00 in0.0 mm 0.00 in0.0 mm 0.00 in0.0 mm
07:32 PM 21.2°F-6.0°C 15.7°F-9.1°C 55% 5.2 mph SE8.4 kmh SE 5.2 mph8.4 kmh 29.68 in1005.1 mb 0.00 in0.0 mm 0.00 in0.0 mm 0.00 in0.0 mm
07:35 PM 21.0°F-6.1°C 15.8°F-9.0°C 55% 2.4 mph SE3.9 kmh SE 2.4 mph3.9 kmh 29.68 in1005.1 mb 0.00 in0.0 mm 0.00 in0.0 mm 0.00 in0.0 mm
07:38 PM 21.2°F-6.0°C 15.6°F-9.1°C 54% 4.4 mph ESE7.1 kmh ESE 4.4 mph7.1 kmh 29.68 in1005.1 mb 0.00 in0.0 mm 0.00 in0.0 mm 0.00 in0.0 mm
07:41 PM 21.3°F-5.9°C 15.5°F-9.2°C 55% 5.2 mph E8.4 kmh E 5.2 mph8.4 kmh 29.68 in1005.1 mb 0.00 in0.0 mm 0.00 in0.0 mm 0.00 in0.0 mm
07:44 PM 21.2°F-6.0°C 15.2°F-9.3°C 55% 3.9 mph SE6.3 kmh SE 3.9 mph6.3 kmh 29.68 in1005.1 mb 0.00 in0.0 mm 0.00 in0.0 mm 0.00 in0.0 mm
07:47 PM 21.2°F-6.0°C 15.2°F-9.3°C 55% 10.5 mph ESE16.9 kmh ESE 10.6 mph17.1 kmh 29.68 in1005.1 mb 0.00 in0.0 mm 0.00 in0.0 mm 0.00 in0.0 mm
07:50 PM 20.9°F-6.2°C 15.3°F-9.3°C 55% 6.1 mph ESE9.8 kmh ESE 6.1 mph9.8 kmh 29.68 in1005.1 mb 0.00 in0.0 mm 0.00 in0.0 mm 0.00 in0.0 mm
07:53 PM 21.1°F-6.1°C 14.9°F-9.5°C 55% 2.8 mph SE4.5 kmh SE 2.8 mph4.5 kmh 29.68 in1005.1 mb 0.00 in0.0 mm 0.00 in0.0 mm 0.00 in0.0 mm
07:56 PM 21.2°F-6.0°C 15.0°F-9.4°C 56% 0.8 mph SE1.3 kmh SE 0.8 mph1.3 kmh 29.68 in1005.1 mb 0.00 in0.0 mm 0.00 in0.0 mm 0.00 in0.0 mm
07:59 PM 21.2°F-6.0°C 14.9°F-9.5°C 55% Calm Calm -- 29.68 in1005.1 mb 0.00 in0.0 mm 0.00 in0.0 mm 0.00 in0.0 mm
08:02 PM 20.9°F-6.2°C 15.2°F-9.3°C 56% Calm Calm -- 29.68 in1005.1 mb 0.00 in0.0 mm 0.00 in0.0 mm 0.00 in0.0 mm
08:05 PM 21.1°F-6.1°C 14.7°F-9.6°C 56% 7.6 mph ENE12.2 kmh ENE 7.6 mph12.2 kmh 29.68 in1005.1 mb 0.00 in0.0 mm 0.00 in0.0 mm 0.00 in0.0 mm
08:08 PM 20.8°F-6.2°C 15.1°F-9.4°C 56% 1.6 mph ESE2.6 kmh ESE 1.6 mph2.6 kmh 29.68 in1005.1 mb 0.00 in0.0 mm 0.00 in0.0 mm 0.00 in0.0 mm
08:11 PM 20.9°F-6.2°C 14.8°F-9.6°C 56% 2.4 mph SE3.9 kmh SE 2.4 mph3.9 kmh 29.68 in1005.1 mb 0.00 in0.0 mm 0.00 in0.0 mm 0.00 in0.0 mm
08:14 PM 20.4°F-6.4°C 15.4°F-9.2°C 56% 1.6 mph SE2.6 kmh SE 1.6 mph2.6 kmh 29.68 in1005.1 mb 0.00 in0.0 mm 0.00 in0.0 mm 0.00 in0.0 mm
08:17 PM 20.4°F-6.4°C 15.0°F-9.4°C 55% 3.4 mph ESE5.5 kmh ESE 3.4 mph5.5 kmh 29.68 in1005.1 mb 0.00 in0.0 mm 0.00 in0.0 mm 0.00 in0.0 mm
08:20 PM 20.3°F-6.5°C 15.2°F-9.3°C 56% 2.0 mph ESE3.2 kmh ESE 2.0 mph3.2 kmh 29.68 in1005.1 mb 0.00 in0.0 mm 0.00 in0.0 mm 0.00 in0.0 mm
08:23 PM 20.2°F-6.6°C 15.4°F-9.2°C 56% 9.2 mph NNW14.8 kmh NNW 9.2 mph14.8 kmh 29.68 in1005.1 mb 0.00 in0.0 mm 0.00 in0.0 mm 0.00 in0.0 mm
08:26 PM 20.4°F-6.4°C 15.2°F-9.3°C 56% 3.6 mph SE5.8 kmh SE 3.7 mph6.0 kmh 29.68 in1005.1 mb 0.00 in0.0 mm 0.00 in0.0 mm 0.00 in0.0 mm
08:29 PM 20.1°F-6.6°C 15.2°F-9.3°C 56% 6.9 mph ESE11.1 kmh ESE 6.9 mph11.1 kmh 29.68 in1005.1 mb 0.00 in0.0 mm 0.00 in0.0 mm 0.00 in0.0 mm
08:32 PM 20.1°F-6.6°C 15.3°F-9.3°C 57% 4.8 mph ESE7.7 kmh ESE 4.8 mph7.7 kmh 29.68 in1005.1 mb 0.00 in0.0 mm 0.00 in0.0 mm 0.00 in0.0 mm
08:35 PM 20.1°F-6.6°C 14.9°F-9.5°C 56% Calm Calm -- 29.68 in1005.1 mb 0.00 in0.0 mm 0.00 in0.0 mm 0.00 in0.0 mm
08:38 PM 20.5°F-6.4°C 14.6°F-9.7°C 57% 2.8 mph SE4.5 kmh SE 2.9 mph4.7 kmh 29.68 in1005.1 mb 0.00 in0.0 mm 0.00 in0.0 mm 0.00 in0.0 mm
08:41 PM 20.4°F-6.4°C 14.5°F-9.7°C 57% 7.1 mph SSE11.4 kmh SSE 7.2 mph11.6 kmh 29.68 in1005.1 mb 0.00 in0.0 mm 0.00 in0.0 mm 0.00 in0.0 mm
08:44 PM 20.3°F-6.5°C 15.0°F-9.4°C 58% 9.9 mph SE15.9 kmh SE 10.0 mph16.1 kmh 29.68 in1005.1 mb 0.00 in0.0 mm 0.00 in0.0 mm 0.00 in0.0 mm
08:47 PM 20.5°F-6.4°C 14.5°F-9.7°C 57% 6.4 mph S10.3 kmh S 6.5 mph10.5 kmh 29.68 in1005.1 mb 0.00 in0.0 mm 0.00 in0.0 mm 0.00 in0.0 mm
08:50 PM 20.2°F-6.6°C 14.8°F-9.6°C 57% 7.7 mph E12.4 kmh E 7.7 mph12.4 kmh 29.67 in1004.7 mb 0.00 in0.0 mm 0.00 in0.0 mm 0.00 in0.0 mm
08:53 PM 19.9°F-6.7°C 15.1°F-9.4°C 58% 4.4 mph ESE7.1 kmh ESE 4.5 mph7.2 kmh 29.67 in1004.7 mb 0.00 in0.0 mm 0.00 in0.0 mm 0.00 in0.0 mm
08:56 PM 19.7°F-6.8°C 15.4°F-9.2°C 58% 0.8 mph SE1.3 kmh SE 0.8 mph1.3 kmh 29.67 in1004.7 mb 0.00 in0.0 mm 0.00 in0.0 mm 0.00 in0.0 mm
08:59 PM 19.7°F-6.8°C 15.0°F-9.4°C 58% 7.2 mph SE11.6 kmh SE 7.2 mph11.6 kmh 29.67 in1004.7 mb 0.00 in0.0 mm 0.00 in0.0 mm 0.00 in0.0 mm
09:02 PM 19.6°F-6.9°C 15.1°F-9.4°C 58% 4.4 mph SE7.1 kmh SE 4.4 mph7.1 kmh 29.67 in1004.7 mb 0.00 in0.0 mm 0.00 in0.0 mm 0.00 in0.0 mm
09:05 PM 19.6°F-6.9°C 15.0°F-9.4°C 58% 0.8 mph SSE1.3 kmh SSE 0.8 mph1.3 kmh 29.67 in1004.7 mb 0.00 in0.0 mm 0.00 in0.0 mm 0.00 in0.0 mm
09:08 PM 19.2°F-7.1°C 15.4°F-9.2°C 58% 0.4 mph SE0.6 kmh SE 0.4 mph0.6 kmh 29.67 in1004.7 mb 0.00 in0.0 mm 0.00 in0.0 mm 0.00 in0.0 mm
09:11 PM 19.7°F-6.8°C 14.6°F-9.7°C 58% Calm Calm -- 29.67 in1004.7 mb 0.00 in0.0 mm 0.00 in0.0 mm 0.00 in0.0 mm
09:14 PM 19.4°F-7.0°C 15.1°F-9.4°C 58% 2.0 mph NE3.2 kmh NE 2.0 mph3.2 kmh 29.67 in1004.7 mb 0.00 in0.0 mm 0.00 in0.0 mm 0.00 in0.0 mm
09:17 PM 19.6°F-6.9°C 14.8°F-9.6°C 58% 3.2 mph SE5.1 kmh SE 3.3 mph5.3 kmh 29.67 in1004.7 mb 0.00 in0.0 mm 0.00 in0.0 mm 0.00 in0.0 mm
09:20 PM 19.4°F-7.0°C 15.0°F-9.4°C 58% 1.2 mph E1.9 kmh E 1.2 mph1.9 kmh 29.67 in1004.7 mb 0.00 in0.0 mm 0.00 in0.0 mm 0.00 in0.0 mm
09:23 PM 19.1°F-7.2°C 15.2°F-9.3°C 59% 2.8 mph ESE4.5 kmh ESE 2.9 mph4.7 kmh 29.67 in1004.7 mb 0.00 in0.0 mm 0.00 in0.0 mm 0.00 in0.0 mm
09:26 PM 19.3°F-7.1°C 14.9°F-9.5°C 59% 0.4 mph E0.6 kmh E 0.4 mph0.6 kmh 29.66 in1004.4 mb 0.00 in0.0 mm 0.00 in0.0 mm 0.00 in0.0 mm
09:29 PM 19.3°F-7.1°C 15.0°F-9.4°C 59% Calm Calm -- 29.66 in1004.4 mb 0.00 in0.0 mm 0.00 in0.0 mm 0.00 in0.0 mm
09:32 PM 19.3°F-7.1°C 14.8°F-9.6°C 59% 7.9 mph E12.7 kmh E 8.0 mph12.9 kmh 29.66 in1004.4 mb 0.00 in0.0 mm 0.00 in0.0 mm 0.00 in0.0 mm
09:35 PM 18.8°F-7.3°C 15.4°F-9.2°C 59% 0.4 mph ESE0.6 kmh ESE 0.4 mph0.6 kmh 29.66 in1004.4 mb 0.00 in0.0 mm 0.00 in0.0 mm 0.00 in0.0 mm
09:38 PM 19.2°F-7.1°C 15.0°F-9.4°C 59% 7.1 mph ESE11.4 kmh ESE 7.2 mph11.6 kmh 29.65 in1004.1 mb 0.00 in0.0 mm 0.00 in0.0 mm 0.00 in0.0 mm
09:41 PM 19.3°F-7.1°C 14.7°F-9.6°C 60% 3.2 mph ESE5.1 kmh ESE 3.2 mph5.1 kmh 29.65 in1004.1 mb 0.00 in0.0 mm 0.00 in0.0 mm 0.00 in0.0 mm
09:44 PM 19.4°F-7.0°C 14.6°F-9.7°C 60% Calm Calm -- 29.65 in1004.1 mb 0.00 in0.0 mm 0.00 in0.0 mm 0.00 in0.0 mm
09:47 PM 19.1°F-7.2°C 15.1°F-9.4°C 60% Calm Calm -- 29.65 in1004.1 mb 0.00 in0.0 mm 0.00 in0.0 mm 0.00 in0.0 mm
09:50 PM 18.8°F-7.3°C 15.0°F-9.4°C 60% 0.8 mph NNW1.3 kmh NNW 0.8 mph1.3 kmh 29.65 in1004.1 mb 0.00 in0.0 mm 0.00 in0.0 mm 0.00 in0.0 mm
09:53 PM 18.6°F-7.4°C 15.2°F-9.3°C 60% 4.4 mph SE7.1 kmh SE 4.4 mph7.1 kmh 29.65 in1004.1 mb 0.00 in0.0 mm 0.00 in0.0 mm 0.00 in0.0 mm
09:56 PM 19.0°F-7.2°C 14.6°F-9.7°C 60% 1.6 mph SE2.6 kmh SE 1.6 mph2.6 kmh 29.65 in1004.1 mb 0.00 in0.0 mm 0.00 in0.0 mm 0.00 in0.0 mm
09:59 PM 19.0°F-7.2°C 14.8°F-9.6°C 60% 0.8 mph NNW1.3 kmh NNW 0.8 mph1.3 kmh 29.65 in1004.1 mb 0.00 in0.0 mm 0.00 in0.0 mm 0.00 in0.0 mm
10:02 PM 18.8°F-7.3°C 14.8°F-9.6°C 61% Calm Calm -- 29.65 in1004.1 mb 0.00 in0.0 mm 0.00 in0.0 mm 0.00 in0.0 mm
10:05 PM 18.7°F-7.4°C 14.9°F-9.5°C 61% 3.2 mph NNW5.1 kmh NNW 3.3 mph5.3 kmh 29.65 in1004.1 mb 0.00 in0.0 mm 0.00 in0.0 mm 0.00 in0.0 mm
10:08 PM 18.5°F-7.5°C 15.1°F-9.4°C 61% 6.8 mph E10.9 kmh E 6.9 mph11.1 kmh 29.65 in1004.1 mb 0.00 in0.0 mm 0.00 in0.0 mm 0.00 in0.0 mm
10:11 PM 18.3°F-7.6°C 15.2°F-9.3°C 61% Calm Calm -- 29.65 in1004.1 mb 0.00 in0.0 mm 0.00 in0.0 mm 0.00 in0.0 mm
10:14 PM 18.7°F-7.4°C 14.7°F-9.6°C 61% 5.3 mph ESE8.5 kmh ESE 5.3 mph8.5 kmh 29.64 in1003.7 mb 0.00 in0.0 mm 0.00 in0.0 mm 0.00 in0.0 mm
10:17 PM 18.3°F-7.6°C 15.1°F-9.4°C 61% Calm Calm -- 29.64 in1003.7 mb 0.00 in0.0 mm 0.00 in0.0 mm 0.00 in0.0 mm
10:20 PM 18.1°F-7.7°C 15.1°F-9.4°C 61% Calm Calm -- 29.64 in1003.7 mb 0.00 in0.0 mm 0.00 in0.0 mm 0.00 in0.0 mm
10:23 PM 18.6°F-7.4°C 14.7°F-9.6°C 61% Calm Calm -- 29.64 in1003.7 mb 0.00 in0.0 mm 0.00 in0.0 mm 0.00 in0.0 mm
10:26 PM 18.2°F-7.7°C 14.8°F-9.6°C 62% 7.7 mph E12.4 kmh E 7.7 mph12.4 kmh 29.64 in1003.7 mb 0.00 in0.0 mm 0.00 in0.0 mm 0.00 in0.0 mm
10:29 PM 18.6°F-7.4°C 14.6°F-9.7°C 61% 3.9 mph SE6.3 kmh SE 3.9 mph6.3 kmh 29.64 in1003.7 mb 0.00 in0.0 mm 0.00 in0.0 mm 0.00 in0.0 mm
10:35 PM 18.5°F-7.5°C 14.8°F-9.6°C 62% 2.0 mph SE3.2 kmh SE 2.0 mph3.2 kmh 29.64 in1003.7 mb 0.00 in0.0 mm 0.00 in0.0 mm 0.00 in0.0 mm
10:38 PM 18.4°F-7.6°C 15.1°F-9.4°C 62% Calm Calm -- 29.64 in1003.7 mb 0.00 in0.0 mm 0.00 in0.0 mm 0.00 in0.0 mm
10:41 PM 18.4°F-7.6°C 14.9°F-9.5°C 62% 2.8 mph ESE4.5 kmh ESE 2.8 mph4.5 kmh 29.64 in1003.7 mb 0.00 in0.0 mm 0.00 in0.0 mm 0.00 in0.0 mm
10:44 PM 18.6°F-7.4°C 14.4°F-9.8°C 63% 5.1 mph E8.2 kmh E 5.1 mph8.2 kmh 29.64 in1003.7 mb 0.00 in0.0 mm 0.00 in0.0 mm 0.00 in0.0 mm
10:47 PM 18.5°F-7.5°C 15.0°F-9.4°C 63% 6.0 mph E9.7 kmh E 6.0 mph9.7 kmh 29.64 in1003.7 mb 0.00 in0.0 mm 0.00 in0.0 mm 0.00 in0.0 mm
10:50 PM 18.2°F-7.7°C 14.9°F-9.5°C 63% 1.2 mph SE1.9 kmh SE 1.2 mph1.9 kmh 29.64 in1003.7 mb 0.00 in0.0 mm 0.00 in0.0 mm 0.00 in0.0 mm
10:53 PM 18.4°F-7.6°C 14.5°F-9.7°C 62% 2.4 mph SE3.9 kmh SE 2.4 mph3.9 kmh 29.64 in1003.7 mb 0.00 in0.0 mm 0.00 in0.0 mm 0.00 in0.0 mm
10:56 PM 18.3°F-7.6°C 14.8°F-9.6°C 62% Calm Calm -- 29.64 in1003.7 mb 0.00 in0.0 mm 0.00 in0.0 mm 0.00 in0.0 mm
10:59 PM 18.3°F-7.6°C 14.9°F-9.5°C 63% 3.6 mph E5.8 kmh E 3.6 mph5.8 kmh 29.64 in1003.7 mb 0.00 in0.0 mm 0.00 in0.0 mm 0.00 in0.0 mm
11:02 PM 18.3°F-7.6°C 14.6°F-9.7°C 63% 2.0 mph SE3.2 kmh SE 2.0 mph3.2 kmh 29.63 in1003.4 mb 0.00 in0.0 mm 0.00 in0.0 mm 0.00 in0.0 mm
11:05 PM 18.4°F-7.6°C 14.6°F-9.7°C 63% 0.8 mph SSE1.3 kmh SSE 0.8 mph1.3 kmh 29.63 in1003.4 mb 0.00 in0.0 mm 0.00 in0.0 mm 0.00 in0.0 mm
11:08 PM 18.1°F-7.7°C 14.8°F-9.6°C 64% 2.8 mph SE4.5 kmh SE 2.8 mph4.5 kmh 29.62 in1003.0 mb 0.00 in0.0 mm 0.00 in0.0 mm 0.00 in0.0 mm
11:11 PM 18.1°F-7.7°C 14.5°F-9.7°C 63% 3.6 mph SSE5.8 kmh SSE 3.7 mph6.0 kmh 29.62 in1003.0 mb 0.00 in0.0 mm 0.00 in0.0 mm 0.00 in0.0 mm
11:14 PM 18.1°F-7.7°C 14.7°F-9.6°C 63% Calm Calm -- 29.62 in1003.0 mb 0.00 in0.0 mm 0.00 in0.0 mm 0.00 in0.0 mm
11:17 PM 17.8°F-7.9°C 14.8°F-9.6°C 64% 0.4 mph SE0.6 kmh SE 0.4 mph0.6 kmh 29.62 in1003.0 mb 0.00 in0.0 mm 0.00 in0.0 mm 0.00 in0.0 mm
11:20 PM 17.8°F-7.9°C 14.8°F-9.6°C 64% 3.9 mph SE6.3 kmh SE 3.9 mph6.3 kmh 29.62 in1003.0 mb 0.00 in0.0 mm 0.00 in0.0 mm 0.00 in0.0 mm
11:23 PM 17.7°F-7.9°C 14.8°F-9.6°C 64% Calm Calm -- 29.62 in1003.0 mb 0.00 in0.0 mm 0.00 in0.0 mm 0.00 in0.0 mm
11:26 PM 17.6°F-8.0°C 15.0°F-9.4°C 64% 0.4 mph ESE0.6 kmh ESE 0.4 mph0.6 kmh 29.62 in1003.0 mb 0.00 in0.0 mm 0.00 in0.0 mm 0.00 in0.0 mm
11:29 PM 17.5°F-8.1°C 15.3°F-9.3°C 65% 3.6 mph SSE5.8 kmh SSE 3.6 mph5.8 kmh 29.62 in1003.0 mb 0.00 in0.0 mm 0.00 in0.0 mm 0.00 in0.0 mm
11:32 PM 17.6°F-8.0°C 14.7°F-9.6°C 64% 1.6 mph E2.6 kmh E 1.6 mph2.6 kmh 29.62 in1003.0 mb 0.00 in0.0 mm 0.00 in0.0 mm 0.00 in0.0 mm
11:35 PM 17.7°F-7.9°C 14.7°F-9.6°C 65% 3.6 mph SE5.8 kmh SE 3.6 mph5.8 kmh 29.62 in1003.0 mb 0.00 in0.0 mm 0.00 in0.0 mm 0.00 in0.0 mm
11:38 PM 17.5°F-8.1°C 14.9°F-9.5°C 65% 2.8 mph E4.5 kmh E 2.8 mph4.5 kmh 29.62 in1003.0 mb 0.00 in0.0 mm 0.00 in0.0 mm 0.00 in0.0 mm
11:41 PM 17.5°F-8.1°C 14.8°F-9.6°C 65% 0.4 mph SE0.6 kmh SE 0.4 mph0.6 kmh 29.62 in1003.0 mb 0.00 in0.0 mm 0.00 in0.0 mm 0.00 in0.0 mm
11:44 PM 17.4°F-8.1°C 15.0°F-9.4°C 65% Calm Calm -- 29.62 in1003.0 mb 0.00 in0.0 mm 0.00 in0.0 mm 0.00 in0.0 mm
11:47 PM 17.4°F-8.1°C 14.9°F-9.5°C 65% 4.0 mph ESE6.4 kmh ESE 4.0 mph6.4 kmh 29.61 in1002.7 mb 0.00 in0.0 mm 0.00 in0.0 mm 0.00 in0.0 mm
11:50 PM 17.4°F-8.1°C 14.8°F-9.6°C 66% 3.6 mph SE5.8 kmh SE 3.6 mph5.8 kmh 29.61 in1002.7 mb 0.00 in0.0 mm 0.00 in0.0 mm 0.00 in0.0 mm
11:53 PM 17.5°F-8.1°C 14.6°F-9.7°C 66% 1.2 mph SE1.9 kmh SE 1.2 mph1.9 kmh 29.61 in1002.7 mb 0.00 in0.0 mm 0.00 in0.0 mm 0.00 in0.0 mm
11:56 PM 17.3°F-8.2°C 14.9°F-9.5°C 65% Calm Calm -- 29.61 in1002.7 mb 0.00 in0.0 mm 0.00 in0.0 mm 0.00 in0.0 mm
11:59 PM 17.3°F-8.2°C 14.8°F-9.6°C 66% 0.4 mph SE0.6 kmh SE 0.4 mph0.6 kmh 29.61 in1002.7 mb 0.00 in0.0 mm 0.00 in0.0 mm 0.00 in0.0 mm